Time,TemperatureF,DewpointF,PressureIn,WindDirection,WindDirectionDegrees,WindSpeedMPH,WindSpeedGustMPH,Humidity,HourlyPrecipIn,Conditions,Clouds,dailyrainin,SoftwareType,DateUTC
2013-01-01 00:00:00,56.1,54.1,30.24,SSE,166,0.0,0.0,93,0.00,CLR,SCT,0.00,WeatherDisplay:10.37,2013-01-01 05:00:00,
2013-01-01 00:01:00,56.1,54.1,30.24,SSE,167,0.0,0.0,93,0.00,CLR,SCT,0.00,WeatherDisplay:10.37,2013-01-01 05:01:00,
2013-01-01 00:03:00,56.1,54.1,30.24,SSE,166,0.0,0.0,93,0.00,CLR,SCT,0.00,WeatherDisplay:10.37,2013-01-01 05:03:00,
2013-01-01 00:05:00,56.1,54.1,30.24,SSE,166,0.0,0.0,93,0.00,CLR,SCT,0.00,WeatherDisplay:10.37,2013-01-01 05:05:00,
2013-01-01 00:06:00,56.1,54.1,30.24,SSE,166,0.0,0.0,93,0.00,CLR,SCT,0.00,WeatherDisplay:10.37,2013-01-01 05:06:00,
2013-01-01 00:08:00,56.1,54.1,30.24,SSE,166,0.0,0.0,93,0.00,CLR,SCT,0.00,WeatherDisplay:10.37,2013-01-01 05:08:00,
2013-01-01 00:10:00,56.1,54.1,30.24,SSE,166,0.0,0.0,93,0.00,CLR,SCT,0.00,WeatherDisplay:10.37,2013-01-01 05:10:00,
2013-01-01 00:11:00,56.1,54.1,30.24,SSE,167,0.0,0.0,93,0.00,CLR,SCT,0.00,WeatherDisplay:10.37,2013-01-01 05:11:00,
2013-01-01 00:13:00,56.2,54.2,30.24,SSE,166,0.0,0.0,93,0.00,CLR,SCT,0.00,WeatherDisplay:10.37,2013-01-01 05:13:00,
2013-01-01 00:15:00,56.2,54.2,30.24,SSE,166,0.0,0.0,93,0.00,CLR,SCT,0.00,WeatherDisplay:10.37,2013-01-01 05:15:00,
2013-01-01 00:16:00,56.2,54.2,30.24,SSE,166,0.0,0.0,93,0.00,CLR,SCT,0.00,WeatherDisplay:10.37,2013-01-01 05:16:00,
2013-01-01 00:18:00,56.2,54.2,30.24,SSE,166,0.0,0.0,93,0.00,CLR,SCT,0.00,WeatherDisplay:10.37,2013-01-01 05:18:00,
2013-01-01 00:20:00,56.2,54.2,30.24,SSE,166,0.0,0.0,93,0.00,CLR,SCT,0.00,WeatherDisplay:10.37,2013-01-01 05:20:00,
2013-01-01 00:21:00,56.2,54.2,30.24,SSE,166,0.0,0.0,93,0.00,CLR,SCT,0.00,WeatherDisplay:10.37,2013-01-01 05:21:00,
2013-01-01 00:23:00,56.2,54.2,30.24,SSE,166,0.0,0.0,93,0.00,CLR,SCT,0.00,WeatherDisplay:10.37,2013-01-01 05:23:00,
2013-01-01 00:25:00,56.2,54.2,30.24,SSE,167,0.0,0.0,93,0.00,CLR,SCT,0.00,WeatherDisplay:10.37,2013-01-01 05:25:00,
2013-01-01 00:26:00,56.2,54.2,30.24,SSE,167,0.0,0.0,93,0.00,CLR,SCT,0.00,WeatherDisplay:10.37,2013-01-01 05:26:00,
2013-01-01 00:28:00,56.1,54.1,30.24,SSE,166,0.0,0.0,93,0.00,CLR,SCT,0.00,WeatherDisplay:10.37,2013-01-01 05:28:00,
2013-01-01 00:30:00,56.1,54.1,30.24,SSE,166,0.0,0.0,93,0.00,CLR,SCT,0.00,WeatherDisplay:10.37,2013-01-01 05:30:00,
2013-01-01 00:31:00,56.0,54.0,30.24,SSE,167,0.0,0.0,93,0.00,CLR,SCT,0.00,WeatherDisplay:10.37,2013-01-01 05:31:00,
2013-01-01 00:32:00,56.0,54.0,30.24,SSE,166,0.0,0.0,93,0.00,CLR,SCT,0.00,WeatherDisplay:10.37,2013-01-01 05:32:00,
2013-01-01 00:33:00,56.0,54.0,30.23,SSE,166,0.0,0.0,93,0.00,CLR,SCT,0.00,WeatherDisplay:10.37,2013-01-01 05:33:00,
2013-01-01 00:35:00,56.0,54.0,30.24,SSE,166,0.0,0.0,93,0.00,CLR,SCT,0.00,WeatherDisplay:10.37,2013-01-01 05:35:00,
2013-01-01 00:36:00,56.1,54.4,30.24,SSE,166,0.0,0.0,94,0.00,CLR,SCT,0.00,WeatherDisplay:10.37,2013-01-01 05:36:00,
2013-01-01 00:37:00,56.1,54.4,30.24,SSE,166,0.0,0.0,94,0.00,CLR,SCT,0.00,WeatherDisplay:10.37,2013-01-01 05:37:00,
2013-01-01 00:39:00,56.2,54.5,30.24,SSE,166,0.0,0.0,94,0.00,CLR,SCT,0.00,WeatherDisplay:10.37,2013-01-01 05:39:00,
2013-01-01 00:41:00,56.4,54.7,30.24,SSE,166,0.0,0.0,94,0.00,CLR,SCT,0.00,WeatherDisplay:10.37,2013-01-01 05:41:00,
2013-01-01 00:42:00,56.5,54.8,30.23,SSE,166,0.0,0.0,94,0.00,CLR,SCT,0.00,WeatherDisplay:10.37,2013-01-01 05:42:00,
2013-01-01 00:44:00,56.7,55.0,30.23,SSE,166,0.0,0.0,94,0.00,CLR,SCT,0.00,WeatherDisplay:10.37,2013-01-01 05:44:00,
2013-01-01 00:46:00,56.8,55.1,30.23,SSE,166,0.0,0.0,94,0.00,CLR,SCT,0.00,WeatherDisplay:10.37,2013-01-01 05:46:00,
2013-01-01 00:47:00,56.8,55.1,30.23,SSE,166,0.0,0.0,94,0.00,CLR,SCT,0.00,WeatherDisplay:10.37,2013-01-01 05:47:00,
2013-01-01 00:49:00,56.9,55.2,30.23,SSE,166,0.0,0.0,94,0.00,CLR,SCT,0.00,WeatherDisplay:10.37,2013-01-01 05:49:00,
2013-01-01 00:51:00,56.9,54.9,30.23,SSE,166,0.0,0.0,93,0.00,CLR,SCT,0.00,WeatherDisplay:10.37,2013-01-01 05:51:00,
2013-01-01 00:53:00,57.0,55.0,30.23,SSE,167,0.0,0.0,93,0.00,CLR,SCT,0.00,WeatherDisplay:10.37,2013-01-01 05:53:00,
2013-01-01 00:54:00,57.0,55.0,30.23,SSE,166,0.0,0.0,93,0.00,CLR,SCT,0.00,WeatherDisplay:10.37,2013-01-01 05:54:00,
2013-01-01 00:56:00,57.1,55.1,30.23,SSE,166,0.0,0.0,93,0.00,CLR,SCT,0.00,WeatherDisplay:10.37,2013-01-01 05:56:00,
2013-01-01 00:58:00,57.1,55.1,30.23,SSE,166,0.0,0.0,93,0.00,CLR,SCT,0.00,WeatherDisplay:10.37,2013-01-01 05:58:00,
2013-01-01 00:59:00,57.2,55.2,30.23,SSE,167,0.0,0.0,93,0.00,CLR,SCT,0.00,WeatherDisplay:10.37,2013-01-01 05:59:00,
2013-01-01 01:02:00,57.3,55.0,30.23,SSE,166,0.0,0.0,92,0.00,CLR,SCT,0.00,WeatherDisplay:10.37,2013-01-01 06:02:00,
2013-01-01 01:03:00,57.3,55.0,30.23,SSE,166,0.0,0.0,92,0.00,CLR,SCT,0.00,WeatherDisplay:10.37,2013-01-01 06:03:00,
2013-01-01 01:04:00,57.3,55.0,30.23,SSE,166,0.0,0.0,92,0.00,CLR,SCT,0.00,WeatherDisplay:10.37,2013-01-01 06:04:00,
2013-01-01 01:07:00,57.1,54.5,30.23,SSE,166,0.0,0.0,91,0.00,CLR,SCT,0.00,WeatherDisplay:10.37,2013-01-01 06:07:00,
2013-01-01 01:08:00,57.1,54.5,30.23,SSE,166,0.0,0.0,91,0.00,CLR,SCT,0.00,WeatherDisplay:10.37,2013-01-01 06:08:00,
2013-01-01 01:09:00,57.0,54.4,30.23,SSE,166,0.0,0.0,91,0.00,CLR,SCT,0.00,WeatherDisplay:10.37,2013-01-01 06:09:00,
2013-01-01 01:12:00,56.9,54.3,30.23,SSE,167,0.0,0.0,91,0.00,CLR,SCT,0.00,WeatherDisplay:10.37,2013-01-01 06:12:00,
2013-01-01 01:13:00,56.7,54.1,30.23,SSE,166,0.0,0.0,91,0.00,CLR,SCT,0.00,WeatherDisplay:10.37,2013-01-01 06:13:00,
2013-01-01 01:15:00,56.7,54.1,30.23,SSE,166,0.0,0.0,91,0.00,CLR,SCT,0.00,WeatherDisplay:10.37,2013-01-01 06:15:00,
2013-01-01 01:17:00,56.5,53.9,30.23,SSE,166,0.0,0.0,91,0.00,CLR,SCT,0.00,WeatherDisplay:10.37,2013-01-01 06:17:00,
2013-01-01 01:19:00,56.4,53.8,30.22,SSE,166,0.0,0.0,91,0.00,CLR,SCT,0.00,WeatherDisplay:10.37,2013-01-01 06:19:00,
2013-01-01 01:20:00,56.3,53.7,30.22,SSE,166,0.0,0.0,91,0.00,CLR,SCT,0.00,WeatherDisplay:10.37,2013-01-01 06:20:00,
2013-01-01 01:22:00,56.1,53.5,30.22,SSE,166,0.0,0.0,91,0.00,CLR,SCT,0.00,WeatherDisplay:10.37,2013-01-01 06:22:00,
2013-01-01 01:23:00,56.0,53.4,30.22,SSE,166,0.0,0.0,91,0.00,CLR,SCT,0.00,WeatherDisplay:10.37,2013-01-01 06:23:00,
2013-01-01 01:24:00,56.0,53.4,30.22,SSE,166,0.0,0.0,91,0.00,CLR,SCT,0.00,WeatherDisplay:10.37,2013-01-01 06:24:00,
2013-01-01 01:25:00,55.9,53.3,30.22,SSE,166,0.0,0.0,91,0.00,CLR,SCT,0.00,WeatherDisplay:10.37,2013-01-01 06:25:00,
2013-01-01 01:27:00,55.8,53.2,30.22,SSE,166,0.0,0.0,91,0.00,CLR,SCT,0.00,WeatherDisplay:10.37,2013-01-01 06:27:00,
2013-01-01 01:28:00,55.7,53.1,30.22,SSE,166,0.0,0.0,91,0.00,CLR,SCT,0.00,WeatherDisplay:10.37,2013-01-01 06:28:00,
2013-01-01 01:29:00,55.7,53.1,30.22,SSE,166,0.0,0.0,91,0.00,CLR,SCT,0.00,WeatherDisplay:10.37,2013-01-01 06:29:00,
2013-01-01 01:30:00,55.7,53.1,30.22,SSE,166,0.0,0.0,91,0.00,CLR,SCT,0.00,WeatherDisplay:10.37,2013-01-01 06:30:00,
2013-01-01 01:32:00,55.6,53.0,30.22,SSE,166,0.0,0.0,91,0.00,CLR,SCT,0.00,WeatherDisplay:10.37,2013-01-01 06:32:00,
2013-01-01 01:33:00,55.5,52.9,30.22,SSE,167,0.0,0.0,91,0.00,CLR,SCT,0.00,WeatherDisplay:10.37,2013-01-01 06:33:00,
2013-01-01 01:34:00,55.5,52.9,30.22,SSE,166,0.0,0.0,91,0.00,CLR,SCT,0.00,WeatherDisplay:10.37,2013-01-01 06:34:00,
2013-01-01 01:35:00,55.5,52.9,30.22,SSE,166,0.0,0.0,91,0.00,CLR,SCT,0.00,WeatherDisplay:10.37,2013-01-01 06:35:00,
2013-01-01 01:37:00,55.5,53.2,30.22,SSE,166,0.0,0.0,92,0.00,CLR,SCT,0.00,WeatherDisplay:10.37,2013-01-01 06:37:00,
2013-01-01 01:38:00,55.5,53.2,30.22,SSE,166,0.0,0.0,92,0.00,CLR,SCT,0.00,WeatherDisplay:10.37,2013-01-01 06:38:00,
2013-01-01 01:39:00,55.5,53.2,30.22,SSE,166,0.0,0.0,92,0.00,CLR,SCT,0.00,WeatherDisplay:10.37,2013-01-01 06:39:00,
2013-01-01 01:40:00,55.5,53.2,30.22,SSE,167,0.0,0.0,92,0.00,CLR,SCT,0.00,WeatherDisplay:10.37,2013-01-01 06:40:00,
2013-01-01 01:42:00,55.7,53.7,30.21,SSE,167,0.0,0.0,93,0.00,CLR,SCT,0.00,WeatherDisplay:10.37,2013-01-01 06:42:00,
2013-01-01 01:43:00,55.8,54.1,30.21,SSE,167,0.0,0.0,94,0.00,CLR,SCT,0.00,WeatherDisplay:10.37,2013-01-01 06:43:00,
2013-01-01 01:45:00,55.9,54.2,30.21,SSE,166,0.0,0.0,94,0.00,CLR,SCT,0.00,WeatherDisplay:10.37,2013-01-01 06:45:00,
2013-01-01 01:47:00,56.0,54.3,30.21,SSE,166,0.0,0.0,94,0.00,CLR,SCT,0.00,WeatherDisplay:10.37,2013-01-01 06:47:00,
2013-01-01 01:49:00,56.1,54.4,30.21,SSE,166,0.0,0.0,94,0.00,CLR,SCT,0.00,WeatherDisplay:10.37,2013-01-01 06:49:00,
2013-01-01 01:50:00,56.0,54.0,30.21,SSE,167,0.0,0.0,93,0.00,CLR,SCT,0.00,WeatherDisplay:10.37,2013-01-01 06:50:00,
2013-01-01 01:52:00,56.0,54.0,30.21,SSE,166,0.0,0.0,93,0.00,CLR,SCT,0.00,WeatherDisplay:10.37,2013-01-01 06:52:00,
2013-01-01 01:54:00,56.0,54.0,30.21,SSE,166,0.0,0.0,93,0.00,CLR,SCT,0.00,WeatherDisplay:10.37,2013-01-01 06:54:00,
2013-01-01 01:55:00,55.9,53.9,30.21,SSE,166,0.0,0.0,93,0.00,CLR,SCT,0.00,WeatherDisplay:10.37,2013-01-01 06:55:00,
2013-01-01 01:56:00,55.9,53.9,30.21,SSE,166,0.0,0.0,93,0.00,CLR,SCT,0.00,WeatherDisplay:10.37,2013-01-01 06:56:00,
2013-01-01 01:57:00,55.9,53.9,30.21,SSE,166,0.0,0.0,93,0.00,CLR,SCT,0.00,WeatherDisplay:10.37,2013-01-01 06:57:00,
2013-01-01 01:59:00,55.9,53.9,30.21,SSE,167,0.0,0.0,93,0.00,CLR,SCT,0.00,WeatherDisplay:10.37,2013-01-01 06:59:00,
2013-01-01 02:00:00,55.8,53.8,30.20,SSE,166,0.0,0.0,93,0.00,CLR,SCT,0.00,WeatherDisplay:10.37,2013-01-01 07:00:00,
2013-01-01 02:02:00,55.7,53.7,30.20,SSE,166,0.0,0.0,93,0.00,CLR,SCT,0.00,WeatherDisplay:10.37,2013-01-01 07:02:00,
2013-01-01 02:04:00,55.7,53.7,30.20,SSE,166,0.0,0.0,93,0.00,CLR,SCT,0.00,WeatherDisplay:10.37,2013-01-01 07:04:00,
2013-01-01 02:06:00,55.7,53.7,30.20,SSE,166,0.0,0.0,93,0.00,CLR,SCT,0.00,WeatherDisplay:10.37,2013-01-01 07:06:00,
2013-01-01 02:07:00,55.6,53.6,30.20,SSE,167,0.0,0.0,93,0.00,CLR,SCT,0.00,WeatherDisplay:10.37,2013-01-01 07:07:00,
2013-01-01 02:09:00,55.6,53.6,30.20,SSE,166,0.0,0.0,93,0.00,CLR,SCT,0.00,WeatherDisplay:10.37,2013-01-01 07:09:00,
2013-01-01 02:11:00,55.5,53.5,30.20,SSE,166,0.0,0.0,93,0.00,CLR,SCT,0.00,WeatherDisplay:10.37,2013-01-01 07:11:00,
2013-01-01 02:12:00,55.5,53.5,30.20,SSE,167,0.0,0.0,93,0.00,CLR,SCT,0.00,WeatherDisplay:10.37,2013-01-01 07:12:00,
2013-01-01 02:13:00,55.5,53.5,30.20,SSE,166,0.0,0.0,93,0.00,CLR,SCT,0.00,WeatherDisplay:10.37,2013-01-01 07:13:00,
2013-01-01 02:14:00,55.4,53.4,30.20,SSE,166,0.0,0.0,93,0.00,CLR,SCT,0.00,WeatherDisplay:10.37,2013-01-01 07:14:00,
2013-01-01 02:16:00,55.4,53.4,30.20,SSE,166,0.0,0.0,93,0.00,CLR,SCT,0.00,WeatherDisplay:10.37,2013-01-01 07:16:00,
2013-01-01 02:17:00,55.4,53.4,30.20,SSE,166,0.0,0.0,93,0.00,CLR,SCT,0.00,WeatherDisplay:10.37,2013-01-01 07:17:00,
2013-01-01 02:18:00,55.3,53.3,30.20,SSE,166,0.0,0.0,93,0.00,CLR,SCT,0.00,WeatherDisplay:10.37,2013-01-01 07:18:00,
2013-01-01 02:19:00,55.3,53.3,30.19,SSE,166,0.0,0.0,93,0.00,CLR,SCT,0.00,WeatherDisplay:10.37,2013-01-01 07:19:00,
2013-01-01 02:21:00,55.2,53.2,30.19,SSE,166,0.0,0.0,93,0.00,CLR,SCT,0.00,WeatherDisplay:10.37,2013-01-01 07:21:00,
2013-01-01 02:22:00,55.2,53.2,30.19,SSE,166,0.0,0.0,93,0.00,CLR,SCT,0.00,WeatherDisplay:10.37,2013-01-01 07:22:00,
2013-01-01 02:23:00,55.1,53.1,30.19,SSE,166,0.0,0.0,93,0.00,CLR,SCT,0.00,WeatherDisplay:10.37,2013-01-01 07:23:00,
2013-01-01 02:24:00,55.1,53.1,30.19,SSE,166,0.0,0.0,93,0.00,CLR,SCT,0.00,WeatherDisplay:10.37,2013-01-01 07:24:00,
2013-01-01 02:26:00,55.0,53.0,30.19,SSE,166,0.0,0.0,93,0.00,CLR,SCT,0.00,WeatherDisplay:10.37,2013-01-01 07:26:00,
2013-01-01 02:27:00,55.0,53.0,30.19,SSE,166,0.0,0.0,93,0.00,CLR,SCT,0.00,WeatherDisplay:10.37,2013-01-01 07:27:00,
2013-01-01 02:28:00,54.9,52.9,30.19,SSE,166,0.0,0.0,93,0.00,CLR,SCT,0.00,WeatherDisplay:10.37,2013-01-01 07:28:00,
2013-01-01 02:30:00,54.9,52.9,30.19,SSE,166,0.0,0.0,93,0.00,CLR,SCT,0.00,WeatherDisplay:10.37,2013-01-01 07:30:00,
2013-01-01 02:31:00,54.8,53.1,30.19,SSE,166,0.0,0.0,94,0.00,CLR,SCT,0.00,WeatherDisplay:10.37,2013-01-01 07:31:00,
2013-01-01 02:32:00,54.8,53.1,30.19,SSE,166,0.0,0.0,94,0.00,CLR,SCT,0.00,WeatherDisplay:10.37,2013-01-01 07:32:00,
2013-01-01 02:33:00,54.8,53.1,30.19,SSE,166,0.0,0.0,94,0.00,CLR,SCT,0.00,WeatherDisplay:10.37,2013-01-01 07:33:00,
2013-01-01 02:35:00,54.7,53.0,30.19,SSE,166,0.0,0.0,94,0.00,CLR,SCT,0.00,WeatherDisplay:10.37,2013-01-01 07:35:00,
2013-01-01 02:36:00,54.7,53.0,30.19,SSE,166,0.0,0.0,94,0.00,CLR,SCT,0.00,WeatherDisplay:10.37,2013-01-01 07:36:00,
2013-01-01 02:37:00,54.7,53.0,30.19,SSE,166,0.0,0.0,94,0.00,CLR,SCT,0.00,WeatherDisplay:10.37,2013-01-01 07:37:00,
2013-01-01 02:38:00,54.7,53.0,30.19,SSE,166,0.0,0.0,94,0.00,CLR,SCT,0.00,WeatherDisplay:10.37,2013-01-01 07:38:00,
2013-01-01 02:40:00,54.7,53.0,30.19,SSE,166,0.0,0.0,94,0.00,CLR,SCT,0.00,WeatherDisplay:10.37,2013-01-01 07:40:00,
2013-01-01 02:41:00,54.7,53.0,30.19,SSE,166,0.0,0.0,94,0.00,CLR,SCT,0.00,WeatherDisplay:10.37,2013-01-01 07:41:00,
2013-01-01 02:42:00,54.7,53.0,30.19,SSE,166,0.0,0.0,94,0.00,CLR,SCT,0.00,WeatherDisplay:10.37,2013-01-01 07:42:00,
2013-01-01 02:44:00,54.7,53.0,30.19,SSE,166,0.0,0.0,94,0.00,CLR,SCT,0.00,WeatherDisplay:10.37,2013-01-01 07:44:00,
2013-01-01 02:45:00,54.6,52.9,30.19,SSE,166,0.0,0.0,94,0.00,CLR,SCT,0.00,WeatherDisplay:10.37,2013-01-01 07:45:00,
2013-01-01 02:47:00,54.6,52.9,30.19,SSE,167,0.0,0.0,94,0.00,CLR,SCT,0.00,WeatherDisplay:10.37,2013-01-01 07:47:00,
2013-01-01 02:48:00,54.5,52.8,30.19,SSE,167,0.0,0.0,94,0.00,CLR,SCT,0.00,WeatherDisplay:10.37,2013-01-01 07:48:00,
2013-01-01 02:49:00,54.5,52.8,30.19,SSE,166,0.0,0.0,94,0.00,CLR,SCT,0.00,WeatherDisplay:10.37,2013-01-01 07:49:00,
2013-01-01 02:50:00,54.5,52.8,30.19,SSE,166,0.0,0.0,94,0.00,CLR,SCT,0.00,WeatherDisplay:10.37,2013-01-01 07:50:00,
2013-01-01 02:52:00,54.3,52.6,30.19,SSE,166,0.0,0.0,94,0.00,CLR,SCT,0.00,WeatherDisplay:10.37,2013-01-01 07:52:00,
2013-01-01 02:53:00,54.3,52.6,30.19,SSE,166,0.0,0.0,94,0.00,CLR,SCT,0.00,WeatherDisplay:10.37,2013-01-01 07:53:00,
2013-01-01 02:54:00,54.2,52.5,30.19,SSE,166,0.0,0.0,94,0.00,CLR,SCT,0.00,WeatherDisplay:10.37,2013-01-01 07:54:00,
2013-01-01 02:55:00,54.2,52.5,30.19,SSE,166,0.0,0.0,94,0.00,CLR,SCT,0.00,WeatherDisplay:10.37,2013-01-01 07:55:00,
2013-01-01 02:57:00,54.2,52.5,30.19,SSE,166,0.0,0.0,94,0.00,CLR,SCT,0.00,WeatherDisplay:10.37,2013-01-01 07:57:00,
2013-01-01 02:58:00,54.2,52.8,30.19,SSE,166,0.0,0.0,95,0.00,CLR,SCT,0.00,WeatherDisplay:10.37,2013-01-01 07:58:00,
2013-01-01 02:59:00,54.3,52.9,30.19,SSE,167,0.0,0.0,95,0.00,CLR,SCT,0.00,WeatherDisplay:10.37,2013-01-01 07:59:00,
2013-01-01 03:00:00,54.3,52.9,30.19,SSE,166,0.0,0.0,95,0.00,CLR,SCT,0.00,WeatherDisplay:10.37,2013-01-01 08:00:00,
2013-01-01 03:02:00,54.5,53.1,30.19,SSE,166,0.0,0.0,95,0.00,CLR,SCT,0.00,WeatherDisplay:10.37,2013-01-01 08:02:00,
2013-01-01 03:03:00,54.5,53.1,30.19,SSE,166,0.0,0.0,95,0.00,CLR,SCT,0.00,WeatherDisplay:10.37,2013-01-01 08:03:00,
2013-01-01 03:04:00,54.6,53.2,30.19,SSE,166,0.0,0.0,95,0.00,CLR,SCT,0.00,WeatherDisplay:10.37,2013-01-01 08:04:00,
2013-01-01 03:05:00,54.6,53.5,30.19,SSE,167,0.0,0.0,96,0.00,CLR,SCT,0.00,WeatherDisplay:10.37,2013-01-01 08:05:00,
2013-01-01 03:07:00,54.7,53.6,30.19,SSE,166,0.0,0.0,96,0.00,CLR,SCT,0.00,WeatherDisplay:10.37,2013-01-01 08:07:00,
2013-01-01 03:08:00,54.8,53.7,30.19,SSE,166,0.0,0.0,96,0.00,CLR,SCT,0.00,WeatherDisplay:10.37,2013-01-01 08:08:00,
2013-01-01 03:10:00,54.9,53.8,30.19,SSE,166,0.0,0.0,96,0.00,CLR,SCT,0.00,WeatherDisplay:10.37,2013-01-01 08:10:00,
2013-01-01 03:13:00,55.1,54.0,30.19,SSW,212,1.1,0.0,96,0.00,CLR,SCT,0.00,WeatherDisplay:10.37,2013-01-01 08:13:00,
2013-01-01 03:15:00,55.2,54.1,30.19,SSW,212,1.1,0.0,96,0.00,CLR,SCT,0.00,WeatherDisplay:10.37,2013-01-01 08:15:00,
2013-01-01 03:18:00,55.4,54.3,30.19,SSW,193,1.1,0.0,96,0.00,CLR,SCT,0.00,WeatherDisplay:10.37,2013-01-01 08:18:00,
2013-01-01 03:20:00,55.6,54.5,30.19,SSE,158,1.1,1.1,96,0.00,CLR,SCT,0.00,WeatherDisplay:10.37,2013-01-01 08:20:00,
2013-01-01 03:23:00,55.8,54.7,30.18,South,190,1.0,1.0,96,0.00,CLR,SCT,0.00,WeatherDisplay:10.37,2013-01-01 08:23:00,
2013-01-01 03:24:00,55.9,54.8,30.18,South,186,2.3,2.3,96,0.00,CLR,SCT,0.00,WeatherDisplay:10.37,2013-01-01 08:24:00,
2013-01-01 03:25:00,56.0,54.9,30.18,SSE,164,1.1,0.0,96,0.00,CLR,SCT,0.00,WeatherDisplay:10.37,2013-01-01 08:25:00,
2013-01-01 03:26:00,56.0,54.9,30.18,SSE,164,1.1,1.1,96,0.00,CLR,SCT,0.00,WeatherDisplay:10.37,2013-01-01 08:26:00,
2013-01-01 03:28:00,56.2,55.1,30.18,SSE,150,2.3,2.3,96,0.00,CLR,SCT,0.00,WeatherDisplay:10.37,2013-01-01 08:28:00,
2013-01-01 03:29:00,56.2,55.1,30.18,SSE,153,2.3,2.3,96,0.00,CLR,SCT,0.00,WeatherDisplay:10.37,2013-01-01 08:29:00,
2013-01-01 03:30:00,56.4,55.3,30.18,South,189,2.3,2.3,96,0.00,CLR,SCT,0.00,WeatherDisplay:10.37,2013-01-01 08:30:00,
2013-01-01 03:31:00,56.5,55.4,30.18,SSW,207,3.5,3.5,96,0.00,CLR,SCT,0.00,WeatherDisplay:10.37,2013-01-01 08:31:00,
2013-01-01 03:33:00,56.7,55.6,30.18,SSE,165,3.5,3.5,96,0.00,CLR,SCT,0.00,WeatherDisplay:10.37,2013-01-01 08:33:00,
2013-01-01 03:34:00,56.8,55.7,30.18,SSE,164,3.5,3.5,96,0.00,CLR,SCT,0.00,WeatherDisplay:10.37,2013-01-01 08:34:00,
2013-01-01 03:35:00,56.9,55.5,30.18,SSE,156,2.3,2.3,95,0.00,CLR,SCT,0.00,WeatherDisplay:10.37,2013-01-01 08:35:00,
2013-01-01 03:36:00,57.0,55.6,30.18,South,176,2.3,2.3,95,0.00,CLR,SCT,0.00,WeatherDisplay:10.37,2013-01-01 08:36:00,
2013-01-01 03:38:00,57.1,55.7,30.18,South,188,1.1,0.0,95,0.00,CLR,SCT,0.00,WeatherDisplay:10.37,2013-01-01 08:38:00,
2013-01-01 03:39:00,57.1,55.7,30.18,South,188,1.1,1.1,95,0.00,CLR,SCT,0.00,WeatherDisplay:10.37,2013-01-01 08:39:00,
2013-01-01 03:40:00,57.2,55.5,30.18,SSE,154,2.3,2.3,94,0.00,CLR,SCT,0.00,WeatherDisplay:10.37,2013-01-01 08:40:00,
2013-01-01 03:41:00,57.2,55.5,30.18,SSE,167,2.3,2.3,94,0.00,CLR,SCT,0.00,WeatherDisplay:10.37,2013-01-01 08:41:00,
2013-01-01 03:44:00,57.3,55.6,30.18,SSW,201,2.3,2.3,94,0.00,CLR,SCT,0.00,WeatherDisplay:10.37,2013-01-01 08:44:00,
2013-01-01 03:45:00,57.4,55.4,30.18,SSW,194,0.0,0.0,93,0.00,CLR,SCT,0.00,WeatherDisplay:10.37,2013-01-01 08:45:00,
2013-01-01 03:46:00,57.4,55.4,30.18,SSW,194,0.0,0.0,93,0.00,CLR,SCT,0.00,WeatherDisplay:10.37,2013-01-01 08:46:00,
2013-01-01 03:49:00,57.3,55.3,30.17,South,176,1.1,1.1,93,0.00,CLR,SCT,0.00,WeatherDisplay:10.37,2013-01-01 08:49:00,
2013-01-01 03:51:00,57.4,55.4,30.18,SSE,158,1.1,1.1,93,0.00,CLR,SCT,0.00,WeatherDisplay:10.37,2013-01-01 08:51:00,
2013-01-01 03:54:00,57.4,55.4,30.18,South,169,1.1,1.1,93,0.00,CLR,SCT,0.00,WeatherDisplay:10.37,2013-01-01 08:54:00,
2013-01-01 03:55:00,57.4,55.4,30.18,SSE,167,0.0,0.0,93,0.00,CLR,SCT,0.00,WeatherDisplay:10.37,2013-01-01 08:55:00,
2013-01-01 03:56:00,57.4,55.4,30.18,SSE,167,0.0,0.0,93,0.00,CLR,SCT,0.00,WeatherDisplay:10.37,2013-01-01 08:56:00,
2013-01-01 03:57:00,57.4,55.4,30.18,SSE,168,0.0,0.0,93,0.00,CLR,SCT,0.00,WeatherDisplay:10.37,2013-01-01 08:57:00,
2013-01-01 03:59:00,57.4,55.1,30.18,SSE,168,0.0,0.1,92,0.00,CLR,SCT,0.00,WeatherDisplay:10.37,2013-01-01 08:59:00,
2013-01-01 04:00:00,57.4,55.1,30.18,SSE,167,1.1,1.1,92,0.00,CLR,SCT,0.00,WeatherDisplay:10.37,2013-01-01 09:00:00,
2013-01-01 04:01:00,57.3,55.0,30.18,SSE,167,0.0,0.0,92,0.00,CLR,SCT,0.00,WeatherDisplay:10.37,2013-01-01 09:01:00,
2013-01-01 04:02:00,57.4,55.1,30.18,SSE,167,0.0,0.0,92,0.00,CLR,SCT,0.00,WeatherDisplay:10.37,2013-01-01 09:02:00,
2013-01-01 04:05:00,57.3,55.0,30.18,SSE,160,0.0,0.0,92,0.00,CLR,SCT,0.00,WeatherDisplay:10.37,2013-01-01 09:05:00,
2013-01-01 04:06:00,57.2,54.9,30.18,SSE,160,0.0,0.0,92,0.00,CLR,SCT,0.00,WeatherDisplay:10.37,2013-01-01 09:06:00,
2013-01-01 04:07:00,57.2,54.9,30.18,SSE,160,0.0,0.0,92,0.00,CLR,SCT,0.00,WeatherDisplay:10.37,2013-01-01 09:07:00,
2013-01-01 04:10:00,57.1,54.8,30.17,SSE,163,0.0,0.0,92,0.00,CLR,SCT,0.00,WeatherDisplay:10.37,2013-01-01 09:10:00,
2013-01-01 04:12:00,57.1,54.8,30.17,SSE,163,0.0,0.0,92,0.00,CLR,SCT,0.00,WeatherDisplay:10.37,2013-01-01 09:12:00,
2013-01-01 04:15:00,57.0,54.7,30.17,SSE,165,1.0,0.0,92,0.00,CLR,SCT,0.00,WeatherDisplay:10.37,2013-01-01 09:15:00,
2013-01-01 04:17:00,57.0,55.0,30.17,South,169,1.1,0.0,93,0.00,CLR,SCT,0.00,WeatherDisplay:10.37,2013-01-01 09:17:00,
2013-01-01 04:20:00,57.0,55.0,30.17,SSE,156,0.0,0.0,93,0.00,CLR,SCT,0.00,WeatherDisplay:10.37,2013-01-01 09:20:00,
2013-01-01 04:21:00,57.0,55.0,30.17,SSE,156,0.0,0.0,93,0.00,CLR,SCT,0.00,WeatherDisplay:10.37,2013-01-01 09:21:00,
2013-01-01 04:22:00,57.0,55.0,30.17,SSE,156,0.0,0.0,93,0.00,CLR,SCT,0.00,WeatherDisplay:10.37,2013-01-01 09:22:00,
2013-01-01 04:25:00,57.0,55.0,30.17,SSE,152,0.0,0.0,93,0.00,CLR,SCT,0.00,WeatherDisplay:10.37,2013-01-01 09:25:00,
2013-01-01 04:26:00,57.0,55.0,30.17,SSE,153,0.0,0.0,93,0.00,CLR,SCT,0.00,WeatherDisplay:10.37,2013-01-01 09:26:00,
2013-01-01 04:27:00,57.0,55.0,30.17,SSE,152,0.0,0.0,93,0.00,CLR,SCT,0.00,WeatherDisplay:10.37,2013-01-01 09:27:00,
2013-01-01 04:30:00,56.9,54.6,30.17,SSE,156,1.1,0.0,92,0.00,CLR,SCT,0.00,WeatherDisplay:10.37,2013-01-01 09:30:00,
2013-01-01 04:31:00,56.9,54.6,30.17,SSE,156,0.0,0.0,92,0.00,CLR,SCT,0.00,WeatherDisplay:10.37,2013-01-01 09:31:00,
2013-01-01 04:32:00,56.9,54.6,30.16,SSE,157,0.0,0.0,92,0.00,CLR,SCT,0.00,WeatherDisplay:10.37,2013-01-01 09:32:00,
2013-01-01 04:35:00,56.7,54.4,30.16,SSE,156,0.0,0.0,92,0.00,CLR,SCT,0.00,WeatherDisplay:10.37,2013-01-01 09:35:00,
2013-01-01 04:36:00,56.7,54.4,30.16,SSE,157,0.0,0.0,92,0.00,CLR,SCT,0.00,WeatherDisplay:10.37,2013-01-01 09:36:00,
2013-01-01 04:37:00,56.7,54.4,30.16,SSE,156,0.0,0.0,92,0.00,CLR,SCT,0.00,WeatherDisplay:10.37,2013-01-01 09:37:00,
2013-01-01 04:38:00,56.6,54.3,30.16,SSE,156,0.0,0.0,92,0.00,CLR,SCT,0.00,WeatherDisplay:10.37,2013-01-01 09:38:00,
2013-01-01 04:40:00,56.6,54.3,30.16,SSE,168,0.0,0.0,92,0.00,CLR,SCT,0.00,WeatherDisplay:10.37,2013-01-01 09:40:00,
2013-01-01 04:41:00,56.5,54.2,30.16,SSE,167,0.0,0.0,92,0.00,CLR,SCT,0.00,WeatherDisplay:10.37,2013-01-01 09:41:00,
2013-01-01 04:42:00,56.5,54.2,30.16,SSE,168,0.0,0.0,92,0.00,CLR,SCT,0.00,WeatherDisplay:10.37,2013-01-01 09:42:00,
2013-01-01 04:43:00,56.5,54.2,30.17,SSE,167,0.0,0.0,92,0.00,CLR,SCT,0.00,WeatherDisplay:10.37,2013-01-01 09:43:00,
2013-01-01 04:45:00,56.4,54.1,30.16,SSE,166,0.0,0.0,92,0.00,CLR,SCT,0.00,WeatherDisplay:10.37,2013-01-01 09:45:00,
2013-01-01 04:46:00,56.4,54.1,30.16,SSE,166,0.0,0.0,92,0.00,CLR,SCT,0.00,WeatherDisplay:10.37,2013-01-01 09:46:00,
2013-01-01 04:48:00,56.3,54.0,30.16,SSE,166,0.0,0.0,92,0.00,CLR,SCT,0.00,WeatherDisplay:10.37,2013-01-01 09:48:00,
2013-01-01 04:51:00,56.2,54.2,30.16,South,173,1.1,1.1,93,0.00,CLR,SCT,0.00,WeatherDisplay:10.37,2013-01-01 09:51:00,
2013-01-01 04:52:00,56.2,54.2,30.16,SSE,166,1.1,1.1,93,0.00,CLR,SCT,0.00,WeatherDisplay:10.37,2013-01-01 09:52:00,
2013-01-01 04:53:00,56.3,54.3,30.16,SSE,166,0.0,0.0,93,0.00,CLR,SCT,0.00,WeatherDisplay:10.37,2013-01-01 09:53:00,
2013-01-01 04:56:00,56.4,54.4,30.16,SW,229,0.0,0.1,93,0.00,CLR,SCT,0.00,WeatherDisplay:10.37,2013-01-01 09:56:00,
2013-01-01 04:57:00,56.4,54.4,30.16,SW,229,1.1,1.1,93,0.00,CLR,SCT,0.00,WeatherDisplay:10.37,2013-01-01 09:57:00,
2013-01-01 04:58:00,56.4,54.4,30.16,SW,229,0.0,0.0,93,0.00,CLR,SCT,0.00,WeatherDisplay:10.37,2013-01-01 09:58:00,
2013-01-01 05:01:00,56.4,54.4,30.16,SW,229,0.0,0.0,93,0.00,CLR,SCT,0.00,WeatherDisplay:10.37,2013-01-01 10:01:00,
2013-01-01 05:02:00,56.4,54.4,30.16,SW,229,0.0,0.0,93,0.00,CLR,SCT,0.00,WeatherDisplay:10.37,2013-01-01 10:02:00,
2013-01-01 05:03:00,56.4,54.4,30.16,SW,229,1.1,0.0,93,0.00,CLR,SCT,0.00,WeatherDisplay:10.37,2013-01-01 10:03:00,
2013-01-01 05:04:00,56.4,54.4,30.16,SSE,159,1.1,1.1,93,0.00,CLR,SCT,0.00,WeatherDisplay:10.37,2013-01-01 10:04:00,
2013-01-01 05:06:00,56.3,54.3,30.16,SSE,159,0.0,0.0,93,0.00,CLR,SCT,0.00,WeatherDisplay:10.37,2013-01-01 10:06:00,
2013-01-01 05:07:00,56.3,54.3,30.16,SSE,160,0.0,0.0,93,0.00,CLR,SCT,0.00,WeatherDisplay:10.37,2013-01-01 10:07:00,
2013-01-01 05:08:00,56.3,54.3,30.16,SSE,160,0.0,0.0,93,0.00,CLR,SCT,0.00,WeatherDisplay:10.37,2013-01-01 10:08:00,
2013-01-01 05:09:00,56.3,54.3,30.16,SSE,159,0.0,0.0,93,0.00,CLR,SCT,0.00,WeatherDisplay:10.37,2013-01-01 10:09:00,
2013-01-01 05:12:00,56.2,54.2,30.16,SSE,163,0.0,0.0,93,0.00,CLR,SCT,0.00,WeatherDisplay:10.37,2013-01-01 10:12:00,
2013-01-01 05:13:00,56.2,54.2,30.16,SSE,163,0.0,0.0,93,0.00,CLR,SCT,0.00,WeatherDisplay:10.37,2013-01-01 10:13:00,
2013-01-01 05:15:00,56.2,54.2,30.16,SE,138,1.1,1.1,93,0.00,CLR,SCT,0.00,WeatherDisplay:10.37,2013-01-01 10:15:00,
2013-01-01 05:17:00,56.2,54.2,30.16,SSE,158,0.0,0.0,93,0.00,CLR,SCT,0.00,WeatherDisplay:10.37,2013-01-01 10:17:00,
2013-01-01 05:18:00,56.2,54.2,30.16,SSE,164,0.0,0.2,93,0.00,CLR,SCT,0.00,WeatherDisplay:10.37,2013-01-01 10:18:00,
2013-01-01 05:20:00,56.2,54.5,30.16,SSE,165,0.0,0.0,94,0.00,CLR,SCT,0.00,WeatherDisplay:10.37,2013-01-01 10:20:00,
2013-01-01 05:22:00,56.2,54.5,30.16,SSE,165,0.0,0.0,94,0.00,CLR,SCT,0.00,WeatherDisplay:10.37,2013-01-01 10:22:00,
2013-01-01 05:23:00,56.2,54.2,30.16,SSE,163,0.0,0.0,93,0.00,CLR,SCT,0.00,WeatherDisplay:10.37,2013-01-01 10:23:00,
2013-01-01 05:25:00,56.2,54.2,30.16,SSE,163,0.0,0.0,93,0.00,CLR,SCT,0.00,WeatherDisplay:10.37,2013-01-01 10:25:00,
2013-01-01 05:27:00,56.1,54.1,30.16,SSE,165,0.0,0.0,93,0.00,CLR,SCT,0.00,WeatherDisplay:10.37,2013-01-01 10:27:00,
2013-01-01 05:28:00,56.0,54.0,30.16,SSE,165,0.0,0.0,93,0.00,CLR,SCT,0.00,WeatherDisplay:10.37,2013-01-01 10:28:00,
2013-01-01 05:31:00,55.9,53.9,30.16,SSE,165,0.0,0.0,93,0.00,CLR,SCT,0.00,WeatherDisplay:10.37,2013-01-01 10:31:00,
2013-01-01 05:33:00,55.9,53.9,30.16,SSE,165,0.0,0.0,93,0.00,CLR,SCT,0.00,WeatherDisplay:10.37,2013-01-01 10:33:00,
2013-01-01 05:36:00,55.8,53.8,30.16,SSE,165,0.0,0.0,93,0.00,CLR,SCT,0.00,WeatherDisplay:10.37,2013-01-01 10:36:00,
2013-01-01 05:38:00,55.7,53.7,30.16,SSE,165,0.0,0.0,93,0.00,CLR,SCT,0.00,WeatherDisplay:10.37,2013-01-01 10:38:00,
2013-01-01 05:41:00,55.4,53.4,30.16,SSE,165,0.0,0.0,93,0.00,CLR,SCT,0.00,WeatherDisplay:10.37,2013-01-01 10:41:00,
2013-01-01 05:43:00,55.3,53.3,30.16,SSE,165,0.0,0.0,93,0.00,CLR,SCT,0.00,WeatherDisplay:10.37,2013-01-01 10:43:00,
2013-01-01 05:47:00,55.0,53.0,30.16,SSE,165,0.0,0.0,93,0.00,CLR,SCT,0.00,WeatherDisplay:10.37,2013-01-01 10:47:00,
2013-01-01 05:48:00,55.1,53.4,30.16,SSE,165,0.0,0.0,94,0.00,CLR,SCT,0.00,WeatherDisplay:10.37,2013-01-01 10:48:00,
2013-01-01 05:49:00,55.1,53.4,30.16,SSE,165,0.0,0.0,94,0.00,CLR,SCT,0.00,WeatherDisplay:10.37,2013-01-01 10:49:00,
2013-01-01 05:52:00,55.3,53.6,30.16,SSE,165,0.0,0.0,94,0.00,CLR,SCT,0.00,WeatherDisplay:10.37,2013-01-01 10:52:00,
2013-01-01 05:53:00,55.3,53.6,30.16,SSE,165,0.0,0.0,94,0.00,CLR,SCT,0.00,WeatherDisplay:10.37,2013-01-01 10:53:00,
2013-01-01 05:54:00,55.3,53.6,30.16,SSE,165,0.0,0.0,94,0.00,CLR,SCT,0.00,WeatherDisplay:10.37,2013-01-01 10:54:00,
2013-01-01 05:57:00,55.2,53.5,30.16,SSE,165,0.0,0.0,94,0.00,CLR,SCT,0.00,WeatherDisplay:10.37,2013-01-01 10:57:00,
2013-01-01 05:58:00,55.2,53.5,30.16,SSE,165,0.0,0.0,94,0.00,CLR,SCT,0.00,WeatherDisplay:10.37,2013-01-01 10:58:00,
2013-01-01 05:59:00,55.1,53.4,30.16,SSE,165,0.0,0.0,94,0.00,CLR,SCT,0.00,WeatherDisplay:10.37,2013-01-01 10:59:00,
2013-01-01 06:02:00,55.1,53.4,30.16,SSE,165,0.0,0.0,94,0.00,CLR,SCT,0.00,WeatherDisplay:10.37,2013-01-01 11:02:00,
2013-01-01 06:03:00,55.0,53.3,30.16,SSE,165,0.0,0.0,94,0.00,CLR,SCT,0.00,WeatherDisplay:10.37,2013-01-01 11:03:00,
2013-01-01 06:04:00,55.0,53.3,30.17,SSE,165,0.0,0.0,94,0.00,CLR,SCT,0.00,WeatherDisplay:10.37,2013-01-01 11:04:00,
2013-01-01 06:08:00,54.8,53.1,30.17,SSE,165,0.0,0.0,94,0.00,CLR,SCT,0.00,WeatherDisplay:10.37,2013-01-01 11:08:00,
2013-01-01 06:09:00,54.7,53.0,30.17,SSE,165,0.0,0.0,94,0.00,CLR,SCT,0.00,WeatherDisplay:10.37,2013-01-01 11:09:00,
2013-01-01 06:13:00,54.3,52.3,30.16,SSE,165,0.0,0.0,93,0.00,CLR,SCT,0.00,WeatherDisplay:10.37,2013-01-01 11:13:00,
2013-01-01 06:14:00,54.2,52.2,30.17,SSE,165,0.0,0.0,93,0.00,CLR,SCT,0.00,WeatherDisplay:10.37,2013-01-01 11:14:00,
2013-01-01 06:18:00,54.0,52.3,30.17,SSE,165,0.0,0.0,94,0.00,CLR,SCT,0.00,WeatherDisplay:10.37,2013-01-01 11:18:00,
2013-01-01 06:19:00,54.0,52.3,30.17,SSE,165,0.0,0.0,94,0.00,CLR,SCT,0.00,WeatherDisplay:10.37,2013-01-01 11:19:00,
2013-01-01 06:24:00,53.8,52.1,30.17,SSE,165,0.0,0.0,94,0.00,CLR,SCT,0.00,WeatherDisplay:10.37,2013-01-01 11:24:00,
2013-01-01 06:25:00,53.7,52.0,30.17,SSE,165,0.0,0.0,94,0.00,CLR,SCT,0.00,WeatherDisplay:10.37,2013-01-01 11:25:00,
2013-01-01 06:29:00,53.4,51.7,30.17,SSE,165,0.0,0.0,94,0.00,CLR,SCT,0.00,WeatherDisplay:10.37,2013-01-01 11:29:00,
2013-01-01 06:30:00,53.3,51.6,30.17,SSE,165,0.0,0.0,94,0.00,CLR,SCT,0.00,WeatherDisplay:10.37,2013-01-01 11:30:00,
2013-01-01 06:34:00,53.0,51.3,30.16,SSE,165,0.0,0.0,94,0.00,CLR,SCT,0.00,WeatherDisplay:10.37,2013-01-01 11:34:00,
2013-01-01 06:35:00,52.9,51.2,30.16,SSE,165,0.0,0.0,94,0.00,CLR,SCT,0.00,WeatherDisplay:10.37,2013-01-01 11:35:00,
2013-01-01 06:39:00,52.7,51.0,30.16,SSE,165,0.0,0.0,94,0.00,CLR,SCT,0.00,WeatherDisplay:10.37,2013-01-01 11:39:00,
2013-01-01 06:40:00,52.7,51.0,30.16,SSE,165,0.0,0.0,94,0.00,CLR,SCT,0.00,WeatherDisplay:10.37,2013-01-01 11:40:00,
2013-01-01 06:44:00,52.9,51.8,30.16,SSE,165,0.0,0.0,96,0.00,CLR,SCT,0.00,WeatherDisplay:10.37,2013-01-01 11:44:00,
2013-01-01 06:45:00,53.0,51.9,30.16,SSE,165,0.0,0.0,96,0.00,CLR,SCT,0.00,WeatherDisplay:10.37,2013-01-01 11:45:00,
2013-01-01 06:49:00,53.2,52.1,30.16,SSE,165,0.0,0.0,96,0.00,CLR,SCT,0.00,WeatherDisplay:10.37,2013-01-01 11:49:00,
2013-01-01 06:50:00,53.2,52.1,30.16,SSE,165,0.0,0.0,96,0.00,CLR,SCT,0.00,WeatherDisplay:10.37,2013-01-01 11:50:00,
2013-01-01 06:54:00,53.3,52.2,30.16,SSE,165,0.0,0.0,96,0.00,CLR,SCT,0.00,WeatherDisplay:10.37,2013-01-01 11:54:00,
2013-01-01 06:55:00,53.3,52.2,30.16,SSE,163,0.0,0.0,96,0.00,CLR,SCT,0.00,WeatherDisplay:10.37,2013-01-01 11:55:00,
2013-01-01 07:00:00,53.5,52.4,30.17,SSE,165,0.0,0.0,96,0.00,CLR,SCT,0.00,WeatherDisplay:10.37,2013-01-01 12:00:00,
2013-01-01 07:01:00,53.5,52.4,30.17,SSE,165,0.0,0.0,96,0.00,CLR,SCT,0.00,WeatherDisplay:10.37,2013-01-01 12:01:00,
2013-01-01 07:05:00,53.6,52.5,30.17,SSE,165,0.0,0.0,96,0.00,CLR,SCT,0.00,WeatherDisplay:10.37,2013-01-01 12:05:00,
2013-01-01 07:06:00,53.5,52.4,30.17,SSE,165,0.0,0.0,96,0.00,CLR,SCT,0.00,WeatherDisplay:10.37,2013-01-01 12:06:00,
2013-01-01 07:10:00,53.3,52.2,30.17,SSE,165,0.0,0.0,96,0.00,CLR,SCT,0.00,WeatherDisplay:10.37,2013-01-01 12:10:00,
2013-01-01 07:11:00,53.2,52.1,30.17,SSE,165,0.0,0.0,96,0.00,CLR,SCT,0.00,WeatherDisplay:10.37,2013-01-01 12:11:00,
2013-01-01 07:15:00,52.9,51.5,30.17,SSE,165,0.0,0.0,95,0.00,CLR,SCT,0.00,WeatherDisplay:10.37,2013-01-01 12:15:00,
2013-01-01 07:16:00,52.8,51.4,30.17,SSE,163,0.0,0.0,95,0.00,CLR,SCT,0.00,WeatherDisplay:10.37,2013-01-01 12:16:00,
2013-01-01 07:20:00,52.5,51.1,30.17,SSE,165,0.0,0.0,95,0.00,CLR,SCT,0.00,WeatherDisplay:10.37,2013-01-01 12:20:00,
2013-01-01 07:21:00,52.4,51.0,30.17,SSE,165,0.0,0.0,95,0.00,CLR,SCT,0.00,WeatherDisplay:10.37,2013-01-01 12:21:00,
2013-01-01 07:25:00,52.1,50.7,30.18,SSE,165,0.0,0.0,95,0.00,CLR,SCT,0.00,WeatherDisplay:10.37,2013-01-01 12:25:00,
2013-01-01 07:26:00,52.1,50.7,30.18,SSE,165,0.0,0.0,95,0.00,CLR,SCT,0.00,WeatherDisplay:10.37,2013-01-01 12:26:00,
2013-01-01 07:30:00,51.9,50.8,30.18,SSE,165,0.0,0.0,96,0.00,CLR,SCT,0.00,WeatherDisplay:10.37,2013-01-01 12:30:00,
2013-01-01 07:31:00,51.9,50.8,30.18,SSE,165,0.0,0.0,96,0.00,CLR,SCT,0.00,WeatherDisplay:10.37,2013-01-01 12:31:00,
2013-01-01 07:35:00,51.8,50.7,30.18,SSE,165,0.0,0.0,96,0.00,CLR,SCT,0.00,WeatherDisplay:10.37,2013-01-01 12:35:00,
2013-01-01 07:36:00,51.8,50.7,30.18,SSE,165,0.0,0.0,96,0.00,CLR,SCT,0.00,WeatherDisplay:10.37,2013-01-01 12:36:00,
2013-01-01 07:40:00,51.6,50.5,30.18,SSE,165,0.0,0.0,96,0.00,CLR,SCT,0.00,WeatherDisplay:10.37,2013-01-01 12:40:00,
2013-01-01 07:41:00,51.6,50.5,30.18,SSE,165,0.0,0.0,96,0.00,CLR,SCT,0.00,WeatherDisplay:10.37,2013-01-01 12:41:00,
2013-01-01 07:45:00,51.5,50.4,30.18,SSE,165,0.0,0.0,96,0.00,CLR,SCT,0.00,WeatherDisplay:10.37,2013-01-01 12:45:00,
2013-01-01 07:46:00,51.5,50.4,30.18,SSE,165,0.0,0.0,96,0.00,CLR,SCT,0.00,WeatherDisplay:10.37,2013-01-01 12:46:00,
2013-01-01 07:50:00,51.7,50.6,30.18,SSE,165,0.0,0.0,96,0.00,CLR,SCT,0.00,WeatherDisplay:10.37,2013-01-01 12:50:00,
2013-01-01 07:51:00,51.7,50.6,30.18,SSE,165,0.0,0.0,96,0.00,CLR,SCT,0.00,WeatherDisplay:10.37,2013-01-01 12:51:00,
2013-01-01 07:52:00,51.7,50.6,30.18,SSE,165,0.0,0.0,96,0.00,CLR,SCT,0.00,WeatherDisplay:10.37,2013-01-01 12:52:00,
2013-01-01 07:56:00,52.0,51.2,30.18,SSE,165,0.0,0.0,97,0.00,CLR,SCT,0.00,WeatherDisplay:10.37,2013-01-01 12:56:00,
2013-01-01 07:57:00,52.1,51.3,30.18,SSE,165,0.0,0.0,97,0.00,CLR,SCT,0.00,WeatherDisplay:10.37,2013-01-01 12:57:00,
2013-01-01 08:01:00,52.3,51.5,30.18,SSE,165,0.0,0.0,97,0.00,CLR,SCT,0.00,WeatherDisplay:10.37,2013-01-01 13:01:00,
2013-01-01 08:02:00,52.4,51.6,30.18,SSE,165,0.0,0.0,97,0.00,CLR,SCT,0.00,WeatherDisplay:10.37,2013-01-01 13:02:00,
2013-01-01 08:06:00,52.8,52.0,30.18,SSE,164,0.0,0.0,97,0.00,CLR,SCT,0.00,WeatherDisplay:10.37,2013-01-01 13:06:00,
2013-01-01 08:07:00,52.9,52.1,30.18,SSE,163,0.0,0.0,97,0.00,CLR,SCT,0.00,WeatherDisplay:10.37,2013-01-01 13:07:00,
2013-01-01 08:11:00,53.4,52.6,30.17,SSE,164,0.0,0.0,97,0.00,CLR,SCT,0.00,WeatherDisplay:10.37,2013-01-01 13:11:00,
2013-01-01 08:12:00,53.5,52.7,30.17,SSE,164,0.0,0.0,97,0.00,CLR,SCT,0.00,WeatherDisplay:10.37,2013-01-01 13:12:00,
2013-01-01 08:16:00,53.8,53.0,30.17,SSE,163,0.0,0.0,97,0.00,CLR,SCT,0.00,WeatherDisplay:10.37,2013-01-01 13:16:00,
2013-01-01 08:17:00,53.9,53.1,30.17,SSE,164,0.0,0.0,97,0.00,CLR,SCT,0.00,WeatherDisplay:10.37,2013-01-01 13:17:00,
2013-01-01 08:21:00,54.2,53.4,30.18,SSE,164,0.0,0.0,97,0.00,CLR,SCT,0.00,WeatherDisplay:10.37,2013-01-01 13:21:00,
2013-01-01 08:22:00,54.3,53.5,30.18,SSE,164,0.0,0.0,97,0.00,CLR,SCT,0.00,WeatherDisplay:10.37,2013-01-01 13:22:00,
2013-01-01 08:23:00,54.3,53.5,30.18,SSE,164,0.0,0.0,97,0.00,CLR,SCT,0.00,WeatherDisplay:10.37,2013-01-01 13:23:00,
2013-01-01 08:26:00,54.7,54.1,30.18,SSE,150,0.0,0.0,98,0.00,CLR,SCT,0.00,WeatherDisplay:10.37,2013-01-01 13:26:00,
2013-01-01 08:27:00,54.8,54.2,30.18,SSE,150,0.0,0.0,98,0.00,CLR,SCT,0.00,WeatherDisplay:10.37,2013-01-01 13:27:00,
2013-01-01 08:28:00,54.8,54.2,30.18,SSE,150,0.0,0.0,98,0.00,CLR,SCT,0.00,WeatherDisplay:10.37,2013-01-01 13:28:00,
2013-01-01 08:31:00,55.3,54.7,30.18,SSE,150,0.0,0.0,98,0.00,CLR,SCT,0.00,WeatherDisplay:10.37,2013-01-01 13:31:00,
2013-01-01 08:32:00,55.3,54.7,30.18,SSE,150,0.0,0.0,98,0.00,CLR,SCT,0.00,WeatherDisplay:10.37,2013-01-01 13:32:00,
2013-01-01 08:33:00,55.4,54.8,30.18,SSE,150,0.0,0.0,98,0.00,CLR,SCT,0.00,WeatherDisplay:10.37,2013-01-01 13:33:00,
2013-01-01 08:37:00,55.8,55.2,30.18,SSE,150,0.0,0.0,98,0.00,CLR,SCT,0.00,WeatherDisplay:10.37,2013-01-01 13:37:00,
2013-01-01 08:38:00,55.9,55.3,30.18,SSE,150,0.0,0.0,98,0.00,CLR,SCT,0.00,WeatherDisplay:10.37,2013-01-01 13:38:00,
2013-01-01 08:42:00,56.4,55.8,30.18,SSE,150,0.0,0.0,98,0.00,CLR,SCT,0.00,WeatherDisplay:10.37,2013-01-01 13:42:00,
2013-01-01 08:43:00,56.4,55.8,30.18,SSE,150,0.0,0.0,98,0.00,CLR,SCT,0.00,WeatherDisplay:10.37,2013-01-01 13:43:00,
2013-01-01 08:47:00,57.0,56.4,30.18,SSE,150,0.0,0.0,98,0.00,CLR,SCT,0.00,WeatherDisplay:10.37,2013-01-01 13:47:00,
2013-01-01 08:48:00,57.1,56.5,30.18,SSE,150,0.0,0.0,98,0.00,CLR,SCT,0.00,WeatherDisplay:10.37,2013-01-01 13:48:00,
2013-01-01 08:49:00,57.2,56.6,30.18,SSE,150,0.0,0.0,98,0.00,CLR,SCT,0.00,WeatherDisplay:10.37,2013-01-01 13:49:00,
2013-01-01 08:52:00,57.6,57.0,30.18,SSE,151,0.0,0.0,98,0.00,CLR,SCT,0.00,WeatherDisplay:10.37,2013-01-01 13:52:00,
2013-01-01 08:53:00,57.7,57.1,30.18,SSE,150,0.0,0.0,98,0.00,CLR,SCT,0.00,WeatherDisplay:10.37,2013-01-01 13:53:00,
2013-01-01 08:54:00,57.8,57.2,30.18,SSE,150,0.0,0.0,98,0.00,CLR,SCT,0.00,WeatherDisplay:10.37,2013-01-01 13:54:00,
2013-01-01 08:57:00,58.2,57.4,30.18,SSE,150,0.0,0.0,97,0.00,CLR,SCT,0.00,WeatherDisplay:10.37,2013-01-01 13:57:00,
2013-01-01 08:58:00,58.2,57.4,30.18,SSE,150,0.0,0.0,97,0.00,CLR,SCT,0.00,WeatherDisplay:10.37,2013-01-01 13:58:00,
2013-01-01 08:59:00,58.4,57.6,30.18,SSE,150,0.0,0.0,97,0.00,CLR,SCT,0.00,WeatherDisplay:10.37,2013-01-01 13:59:00,
2013-01-01 09:02:00,58.8,58.0,30.18,SSE,150,0.0,0.0,97,0.00,CLR,SCT,0.00,WeatherDisplay:10.37,2013-01-01 14:02:00,
2013-01-01 09:03:00,59.0,58.2,30.18,SSE,150,0.0,0.0,97,0.00,CLR,SCT,0.00,WeatherDisplay:10.37,2013-01-01 14:03:00,
2013-01-01 09:04:00,59.1,58.2,30.18,SSE,151,0.0,0.0,97,0.00,CLR,SCT,0.00,WeatherDisplay:10.37,2013-01-01 14:04:00,
2013-01-01 09:07:00,59.7,58.8,30.18,SSE,151,0.0,0.0,97,0.00,CLR,SCT,0.00,WeatherDisplay:10.37,2013-01-01 14:07:00,
2013-01-01 09:08:00,59.9,59.0,30.18,SSE,150,0.0,0.0,97,0.00,CLR,SCT,0.00,WeatherDisplay:10.37,2013-01-01 14:08:00,
2013-01-01 09:09:00,60.1,59.2,30.18,SSE,157,0.0,0.0,97,0.00,CLR,SCT,0.00,WeatherDisplay:10.37,2013-01-01 14:09:00,
2013-01-01 09:12:00,60.7,59.6,30.18,SSW,197,1.1,1.1,96,0.00,CLR,SCT,0.00,WeatherDisplay:10.37,2013-01-01 14:12:00,
2013-01-01 09:13:00,60.9,59.5,30.18,SSW,194,1.1,1.1,95,0.00,CLR,SCT,0.00,WeatherDisplay:10.37,2013-01-01 14:13:00,
2013-01-01 09:14:00,61.1,59.7,30.18,SSW,195,1.1,0.0,95,0.00,CLR,SCT,0.00,WeatherDisplay:10.37,2013-01-01 14:14:00,
2013-01-01 09:17:00,61.8,60.1,30.18,SSW,200,0.0,0.0,94,0.00,CLR,SCT,0.00,WeatherDisplay:10.37,2013-01-01 14:17:00,
2013-01-01 09:19:00,62.1,60.1,30.18,SSW,210,1.1,0.0,93,0.00,CLR,SCT,0.00,WeatherDisplay:10.37,2013-01-01 14:19:00,
2013-01-01 09:20:00,62.4,60.3,30.18,SSW,207,1.1,1.1,93,0.00,CLR,SCT,0.00,WeatherDisplay:10.37,2013-01-01 14:20:00,
2013-01-01 09:22:00,63.0,60.3,30.18,SSW,207,0.0,0.0,91,0.00,CLR,SCT,0.00,WeatherDisplay:10.37,2013-01-01 14:22:00,
2013-01-01 09:24:00,63.5,60.5,30.18,SSW,207,1.1,0.0,90,0.00,CLR,SCT,0.00,WeatherDisplay:10.37,2013-01-01 14:24:00,
2013-01-01 09:25:00,63.6,60.3,30.19,SSW,207,0.0,0.0,89,0.00,CLR,SCT,0.00,WeatherDisplay:10.37,2013-01-01 14:25:00,
2013-01-01 09:28:00,64.3,60.7,30.19,SSE,157,1.1,0.0,88,0.00,CLR,SCT,0.00,WeatherDisplay:10.37,2013-01-01 14:28:00,
2013-01-01 09:29:00,64.7,60.4,30.19,South,191,3.5,3.5,86,0.00,CLR,SCT,0.00,WeatherDisplay:10.37,2013-01-01 14:29:00,
2013-01-01 09:30:00,64.7,60.4,30.19,South,191,2.3,2.3,86,0.00,CLR,SCT,0.00,WeatherDisplay:10.37,2013-01-01 14:30:00,
2013-01-01 09:33:00,65.5,60.9,30.19,SSE,150,1.1,1.1,85,0.00,CLR,SCT,0.00,WeatherDisplay:10.37,2013-01-01 14:33:00,
2013-01-01 09:34:00,65.8,60.5,30.19,SSE,166,2.3,2.3,83,0.00,CLR,SCT,0.00,WeatherDisplay:10.37,2013-01-01 14:34:00,
2013-01-01 09:35:00,66.0,60.3,30.19,SSE,149,2.3,2.3,82,0.00,CLR,SCT,0.00,WeatherDisplay:10.37,2013-01-01 14:35:00,
2013-01-01 09:36:00,66.0,60.3,30.19,SSE,149,2.3,2.3,82,0.00,CLR,SCT,0.00,WeatherDisplay:10.37,2013-01-01 14:36:00,
2013-01-01 09:38:00,66.4,60.4,30.19,SE,138,2.3,2.3,81,0.00,CLR,SCT,0.00,WeatherDisplay:10.37,2013-01-01 14:38:00,
2013-01-01 09:40:00,66.6,60.6,30.19,SE,135,2.3,2.3,81,0.00,CLR,SCT,0.00,WeatherDisplay:10.37,2013-01-01 14:40:00,
2013-01-01 09:41:00,66.8,60.4,30.19,SSE,157,2.3,2.3,80,0.00,CLR,SCT,0.00,WeatherDisplay:10.37,2013-01-01 14:41:00,
2013-01-01 09:43:00,67.0,60.3,30.19,South,169,2.3,2.3,79,0.00,CLR,SCT,0.00,WeatherDisplay:10.37,2013-01-01 14:43:00,
2013-01-01 09:45:00,67.2,60.5,30.19,SSE,157,2.3,2.3,79,0.00,CLR,SCT,0.00,WeatherDisplay:10.37,2013-01-01 14:45:00,
2013-01-01 09:46:00,67.2,60.5,30.19,SSE,159,2.3,2.3,79,0.00,CLR,SCT,0.00,WeatherDisplay:10.37,2013-01-01 14:46:00,
2013-01-01 09:48:00,67.4,60.3,30.19,SSW,197,2.3,2.3,78,0.00,CLR,SCT,0.00,WeatherDisplay:10.37,2013-01-01 14:48:00,
2013-01-01 09:50:00,67.5,60.4,30.18,SSE,151,2.3,2.3,78,0.00,CLR,SCT,0.00,WeatherDisplay:10.37,2013-01-01 14:50:00,
2013-01-01 09:51:00,67.5,60.4,30.18,SE,136,2.3,2.3,78,0.00,CLR,SCT,0.00,WeatherDisplay:10.37,2013-01-01 14:51:00,
2013-01-01 09:53:00,67.7,60.2,30.19,ESE,109,2.3,2.3,77,0.00,CLR,SCT,0.00,WeatherDisplay:10.37,2013-01-01 14:53:00,
2013-01-01 09:55:00,67.7,60.2,30.19,SSE,160,1.1,1.1,77,0.00,CLR,SCT,0.00,WeatherDisplay:10.37,2013-01-01 14:55:00,
2013-01-01 09:56:00,67.8,60.3,30.18,South,184,3.0,3.0,77,0.00,CLR,SCT,0.00,WeatherDisplay:10.37,2013-01-01 14:56:00,
2013-01-01 09:59:00,67.9,60.1,30.18,SSE,164,2.3,2.3,76,0.00,CLR,SCT,0.00,WeatherDisplay:10.37,2013-01-01 14:59:00,
2013-01-01 10:00:00,68.0,60.2,30.18,SSE,153,3.5,3.5,76,0.00,CLR,SCT,0.00,WeatherDisplay:10.37,2013-01-01 15:00:00,
2013-01-01 10:01:00,68.0,60.2,30.18,SE,134,3.5,3.5,76,0.00,CLR,SCT,0.00,WeatherDisplay:10.37,2013-01-01 15:01:00,
2013-01-01 10:04:00,68.1,60.2,30.19,SSE,153,2.3,2.3,76,0.00,CLR,SCT,0.00,WeatherDisplay:10.37,2013-01-01 15:04:00,
2013-01-01 10:05:00,68.2,60.3,30.19,SSW,200,1.1,1.1,76,0.00,CLR,SCT,0.00,WeatherDisplay:10.37,2013-01-01 15:05:00,
2013-01-01 10:06:00,68.3,60.4,30.19,SE,129,1.1,1.1,76,0.00,CLR,SCT,0.00,WeatherDisplay:10.37,2013-01-01 15:06:00,
2013-01-01 10:09:00,68.4,60.2,30.19,SW,215,2.3,2.3,75,0.00,CLR,SCT,0.00,WeatherDisplay:10.37,2013-01-01 15:09:00,
2013-01-01 10:11:00,68.6,60.4,30.19,SE,125,1.1,1.1,75,0.00,CLR,SCT,0.00,WeatherDisplay:10.37,2013-01-01 15:11:00,
2013-01-01 10:14:00,68.8,60.6,30.18,SSW,197,2.3,2.3,75,0.00,CLR,SCT,0.00,WeatherDisplay:10.37,2013-01-01 15:14:00,
2013-01-01 10:16:00,69.0,60.4,30.18,South,191,3.5,3.5,74,0.00,CLR,SCT,0.00,WeatherDisplay:10.37,2013-01-01 15:16:00,
2013-01-01 10:19:00,69.4,60.8,30.18,SSW,201,3.5,3.5,74,0.00,CLR,SCT,0.00,WeatherDisplay:10.37,2013-01-01 15:19:00,
2013-01-01 10:21:00,69.5,60.5,30.18,SSE,150,2.3,2.3,73,0.00,CLR,SCT,0.00,WeatherDisplay:10.37,2013-01-01 15:21:00,
2013-01-01 10:22:00,69.5,60.5,30.18,SSE,168,2.3,2.3,73,0.00,CLR,SCT,0.00,WeatherDisplay:10.37,2013-01-01 15:22:00,
2013-01-01 10:24:00,69.5,60.5,30.18,SE,141,2.3,2.3,73,0.00,CLR,SCT,0.00,WeatherDisplay:10.37,2013-01-01 15:24:00,
2013-01-01 10:26:00,69.6,60.9,30.18,SSE,151,3.0,3.0,74,0.00,CLR,SCT,0.00,WeatherDisplay:10.37,2013-01-01 15:26:00,
2013-01-01 10:27:00,69.7,61.0,30.18,SSW,204,3.5,3.5,74,0.00,CLR,SCT,0.00,WeatherDisplay:10.37,2013-01-01 15:27:00,
2013-01-01 10:29:00,69.7,60.7,30.18,SSE,150,3.5,3.5,73,0.00,CLR,SCT,0.00,WeatherDisplay:10.37,2013-01-01 15:29:00,
2013-01-01 10:31:00,69.7,60.7,30.18,South,172,3.5,3.5,73,0.00,CLR,SCT,0.00,WeatherDisplay:10.37,2013-01-01 15:31:00,
2013-01-01 10:32:00,69.7,60.7,30.18,South,169,2.3,2.3,73,0.00,CLR,SCT,0.00,WeatherDisplay:10.37,2013-01-01 15:32:00,
2013-01-01 10:34:00,69.7,60.7,30.18,South,169,3.5,3.5,73,0.00,CLR,SCT,0.00,WeatherDisplay:10.37,2013-01-01 15:34:00,
2013-01-01 10:36:00,69.7,60.7,30.18,South,190,4.6,4.6,73,0.00,CLR,SCT,0.00,WeatherDisplay:10.37,2013-01-01 15:36:00,
2013-01-01 10:37:00,69.8,60.8,30.18,South,172,2.3,2.3,73,0.00,CLR,SCT,0.00,WeatherDisplay:10.37,2013-01-01 15:37:00,
2013-01-01 10:40:00,69.9,60.8,30.18,SSE,150,2.3,2.3,73,0.00,CLR,SCT,0.00,WeatherDisplay:10.37,2013-01-01 15:40:00,
2013-01-01 10:41:00,70.1,60.7,30.18,South,174,4.0,4.0,72,0.00,CLR,SCT,0.00,WeatherDisplay:10.37,2013-01-01 15:41:00,
2013-01-01 10:42:00,70.1,60.7,30.18,SSE,161,5.0,5.0,72,0.00,CLR,SCT,0.00,WeatherDisplay:10.37,2013-01-01 15:42:00,
2013-01-01 10:43:00,70.2,60.7,30.18,South,181,4.6,4.6,72,0.00,CLR,SCT,0.00,WeatherDisplay:10.37,2013-01-01 15:43:00,
2013-01-01 10:45:00,70.5,61.0,30.17,South,172,3.5,3.5,72,0.00,CLR,SCT,0.00,WeatherDisplay:10.37,2013-01-01 15:45:00,
2013-01-01 10:46:00,70.8,61.3,30.17,SSE,153,2.3,2.3,72,0.00,CLR,SCT,0.00,WeatherDisplay:10.37,2013-01-01 15:46:00,
2013-01-01 10:47:00,70.9,61.4,30.17,WNW,287,2.3,2.3,72,0.00,CLR,SCT,0.00,WeatherDisplay:10.37,2013-01-01 15:47:00,
2013-01-01 10:48:00,71.1,61.2,30.17,SSW,193,3.5,3.5,71,0.00,CLR,SCT,0.00,WeatherDisplay:10.37,2013-01-01 15:48:00,
2013-01-01 10:50:00,71.5,61.2,30.17,SSW,197,3.5,3.5,70,0.00,CLR,SCT,0.00,WeatherDisplay:10.37,2013-01-01 15:50:00,
2013-01-01 10:52:00,71.9,61.2,30.17,SSW,204,3.5,3.5,69,0.00,CLR,SCT,0.00,WeatherDisplay:10.37,2013-01-01 15:52:00,
2013-01-01 10:54:00,72.1,61.0,30.17,SSE,157,4.6,4.6,68,0.00,CLR,SCT,0.00,WeatherDisplay:10.37,2013-01-01 15:54:00,
2013-01-01 10:55:00,72.2,61.0,30.18,SSE,150,3.5,3.5,68,0.00,CLR,SCT,0.00,WeatherDisplay:10.37,2013-01-01 15:55:00,
2013-01-01 10:57:00,72.5,61.3,30.18,SE,146,3.5,3.5,68,0.00,CLR,SCT,0.00,WeatherDisplay:10.37,2013-01-01 15:57:00,
2013-01-01 10:59:00,72.6,61.0,30.17,SSE,155,3.5,3.5,67,0.00,CLR,SCT,0.00,WeatherDisplay:10.37,2013-01-01 15:59:00,
2013-01-01 11:00:00,72.8,61.2,30.17,SSE,159,3.5,3.5,67,0.00,CLR,SCT,0.00,WeatherDisplay:10.37,2013-01-01 16:00:00,
2013-01-01 11:02:00,73.2,61.6,30.17,South,184,3.5,3.5,67,0.00,CLR,SCT,0.00,WeatherDisplay:10.37,2013-01-01 16:02:00,
2013-01-01 11:04:00,73.3,61.3,30.17,SSW,200,3.5,3.5,66,0.00,CLR,SCT,0.00,WeatherDisplay:10.37,2013-01-01 16:04:00,
2013-01-01 11:06:00,73.6,61.5,30.17,SW,224,5.8,5.8,66,0.00,CLR,SCT,0.00,WeatherDisplay:10.37,2013-01-01 16:06:00,
2013-01-01 11:07:00,73.8,61.7,30.17,SE,131,3.5,3.5,66,0.00,CLR,SCT,0.00,WeatherDisplay:10.37,2013-01-01 16:07:00,
2013-01-01 11:08:00,73.8,61.7,30.17,SW,219,3.5,3.5,66,0.00,CLR,SCT,0.00,WeatherDisplay:10.37,2013-01-01 16:08:00,
2013-01-01 11:09:00,74.0,61.5,30.17,SSW,210,3.5,3.5,65,0.00,CLR,SCT,0.00,WeatherDisplay:10.37,2013-01-01 16:09:00,
2013-01-01 11:11:00,74.2,61.7,30.16,SSE,165,2.3,2.3,65,0.00,CLR,SCT,0.00,WeatherDisplay:10.37,2013-01-01 16:11:00,
2013-01-01 11:13:00,74.6,62.1,30.16,South,183,4.0,4.0,65,0.00,CLR,SCT,0.00,WeatherDisplay:10.37,2013-01-01 16:13:00,
2013-01-01 11:14:00,74.7,61.7,30.16,SW,222,3.5,3.5,64,0.00,CLR,SCT,0.00,WeatherDisplay:10.37,2013-01-01 16:14:00,
2013-01-01 11:16:00,74.9,61.5,30.16,South,180,4.6,4.6,63,0.00,CLR,SCT,0.00,WeatherDisplay:10.37,2013-01-01 16:16:00,
2013-01-01 11:18:00,74.9,61.0,30.16,SE,132,10.4,10.4,62,0.00,CLR,SCT,0.00,WeatherDisplay:10.37,2013-01-01 16:18:00,
2013-01-01 11:19:00,75.0,61.1,30.16,South,191,3.5,3.5,62,0.00,CLR,SCT,0.00,WeatherDisplay:10.37,2013-01-01 16:19:00,
2013-01-01 11:21:00,75.0,61.1,30.16,South,174,5.8,5.8,62,0.00,CLR,SCT,0.00,WeatherDisplay:10.37,2013-01-01 16:21:00,
2013-01-01 11:23:00,74.9,61.0,30.16,SSW,194,6.9,6.9,62,0.00,CLR,SCT,0.00,WeatherDisplay:10.37,2013-01-01 16:23:00,
2013-01-01 11:24:00,74.9,61.0,30.16,SE,129,4.6,4.6,62,0.00,CLR,SCT,0.00,WeatherDisplay:10.37,2013-01-01 16:24:00,
2013-01-01 11:26:00,74.8,60.9,30.15,SSE,148,4.6,4.6,62,0.00,CLR,SCT,0.00,WeatherDisplay:10.37,2013-01-01 16:26:00,
2013-01-01 11:28:00,74.8,60.9,30.16,NW,324,5.8,5.8,62,0.00,CLR,SCT,0.00,WeatherDisplay:10.37,2013-01-01 16:28:00,
2013-01-01 11:29:00,74.6,60.7,30.15,SW,225,11.5,11.5,62,0.00,CLR,SCT,0.00,WeatherDisplay:10.37,2013-01-01 16:29:00,
2013-01-01 11:31:00,74.6,60.7,30.15,South,182,8.1,8.1,62,0.00,CLR,SCT,0.00,WeatherDisplay:10.37,2013-01-01 16:31:00,
2013-01-01 11:33:00,74.8,60.9,30.15,SW,219,3.5,3.5,62,0.00,CLR,SCT,0.00,WeatherDisplay:10.37,2013-01-01 16:33:00,
2013-01-01 11:34:00,74.8,61.4,30.15,SSE,153,4.6,4.6,63,0.00,CLR,SCT,0.00,WeatherDisplay:10.37,2013-01-01 16:34:00,
2013-01-01 11:35:00,74.9,61.4,30.15,South,173,2.0,8.0,63,0.00,CLR,SCT,0.00,WeatherDisplay:10.37,2013-01-01 16:35:00,
2013-01-01 11:36:00,75.1,61.2,30.15,SSW,194,5.8,5.8,62,0.00,CLR,SCT,0.00,WeatherDisplay:10.37,2013-01-01 16:36:00,
2013-01-01 11:38:00,75.3,61.4,30.15,South,183,5.8,5.8,62,0.00,CLR,SCT,0.00,WeatherDisplay:10.37,2013-01-01 16:38:00,
2013-01-01 11:39:00,75.3,60.9,30.15,South,185,5.8,5.8,61,0.00,CLR,SCT,0.00,WeatherDisplay:10.37,2013-01-01 16:39:00,
2013-01-01 11:40:00,75.4,61.5,30.15,SSE,163,3.5,3.5,62,0.00,CLR,SCT,0.00,WeatherDisplay:10.37,2013-01-01 16:40:00,
2013-01-01 11:41:00,75.5,60.6,30.15,SSE,160,6.0,6.0,60,0.00,CLR,SCT,0.00,WeatherDisplay:10.37,2013-01-01 16:41:00,
2013-01-01 11:43:00,75.4,61.0,30.15,South,184,3.5,3.5,61,0.00,CLR,SCT,0.00,WeatherDisplay:10.37,2013-01-01 16:43:00,
2013-01-01 11:44:00,75.4,61.0,30.15,SSE,165,5.0,5.0,61,0.00,CLR,SCT,0.00,WeatherDisplay:10.37,2013-01-01 16:44:00,
2013-01-01 11:45:00,75.4,61.0,30.15,SE,141,5.8,5.8,61,0.00,CLR,SCT,0.00,WeatherDisplay:10.37,2013-01-01 16:45:00,
2013-01-01 11:47:00,75.5,61.1,30.15,South,190,4.6,4.6,61,0.00,CLR,SCT,0.00,WeatherDisplay:10.37,2013-01-01 16:47:00,
2013-01-01 11:49:00,75.6,61.2,30.15,SSE,149,4.0,4.0,61,0.00,CLR,SCT,0.00,WeatherDisplay:10.37,2013-01-01 16:49:00,
2013-01-01 11:50:00,75.7,61.3,30.15,South,177,5.8,5.8,61,0.00,CLR,SCT,0.00,WeatherDisplay:10.37,2013-01-01 16:50:00,
2013-01-01 11:52:00,75.7,60.8,30.15,SSW,207,4.6,4.6,60,0.00,CLR,SCT,0.00,WeatherDisplay:10.37,2013-01-01 16:52:00,
2013-01-01 11:54:00,75.9,61.0,30.15,SE,137,3.5,3.5,60,0.00,CLR,SCT,0.00,WeatherDisplay:10.37,2013-01-01 16:54:00,
2013-01-01 11:55:00,75.9,61.0,30.15,East,100,3.5,3.5,60,0.00,CLR,SCT,0.00,WeatherDisplay:10.37,2013-01-01 16:55:00,
2013-01-01 11:57:00,75.8,60.9,30.15,SE,142,3.5,3.5,60,0.00,CLR,SCT,0.00,WeatherDisplay:10.37,2013-01-01 16:57:00,
2013-01-01 11:59:00,75.8,60.9,30.15,SSW,210,4.6,4.6,60,0.00,CLR,SCT,0.00,WeatherDisplay:10.37,2013-01-01 16:59:00,
2013-01-01 12:01:00,75.8,60.9,30.14,SSW,194,4.0,4.0,60,0.00,CLR,SCT,0.00,WeatherDisplay:10.37,2013-01-01 17:01:00,
2013-01-01 12:02:00,75.9,60.5,30.14,SSE,148,6.9,6.9,59,0.00,CLR,SCT,0.00,WeatherDisplay:10.37,2013-01-01 17:02:00,
2013-01-01 12:04:00,76.0,61.1,30.14,SSW,195,9.0,9.0,60,0.00,CLR,SCT,0.00,WeatherDisplay:10.37,2013-01-01 17:04:00,
2013-01-01 12:06:00,76.0,61.1,30.14,SW,229,6.9,6.9,60,0.00,CLR,SCT,0.00,WeatherDisplay:10.37,2013-01-01 17:06:00,
2013-01-01 12:07:00,76.0,60.6,30.14,SE,145,5.8,5.8,59,0.00,CLR,SCT,0.00,WeatherDisplay:10.37,2013-01-01 17:07:00,
2013-01-01 12:09:00,76.0,60.6,30.14,SSW,193,5.8,5.8,59,0.00,CLR,SCT,0.00,WeatherDisplay:10.37,2013-01-01 17:09:00,
2013-01-01 12:11:00,76.1,60.7,30.14,SW,214,4.6,4.6,59,0.00,CLR,SCT,0.00,WeatherDisplay:10.37,2013-01-01 17:11:00,
2013-01-01 12:12:00,76.2,60.8,30.14,South,169,8.1,8.1,59,0.00,CLR,SCT,0.00,WeatherDisplay:10.37,2013-01-01 17:12:00,
2013-01-01 12:14:00,76.3,60.9,30.14,SSW,210,5.0,5.0,59,0.00,CLR,SCT,0.00,WeatherDisplay:10.37,2013-01-01 17:14:00,
2013-01-01 12:16:00,76.4,60.5,30.13,South,181,6.9,6.9,58,0.00,CLR,SCT,0.00,WeatherDisplay:10.37,2013-01-01 17:16:00,
2013-01-01 12:17:00,76.5,61.1,30.13,South,174,6.0,6.0,59,0.00,CLR,SCT,0.00,WeatherDisplay:10.37,2013-01-01 17:17:00,
2013-01-01 12:20:00,76.7,60.8,30.13,South,186,3.5,3.5,58,0.00,CLR,SCT,0.00,WeatherDisplay:10.37,2013-01-01 17:20:00,
2013-01-01 12:21:00,76.9,61.0,30.13,South,191,4.6,4.6,58,0.00,CLR,SCT,0.00,WeatherDisplay:10.37,2013-01-01 17:21:00,
2013-01-01 12:22:00,77.0,61.1,30.13,SW,219,5.8,5.8,58,0.00,CLR,SCT,0.00,WeatherDisplay:10.37,2013-01-01 17:22:00,
2013-01-01 12:25:00,77.1,60.7,30.12,South,172,3.0,7.0,57,0.00,CLR,SCT,0.00,WeatherDisplay:10.37,2013-01-01 17:25:00,
2013-01-01 12:27:00,77.3,60.4,30.12,SW,236,5.8,5.8,56,0.00,CLR,SCT,0.00,WeatherDisplay:10.37,2013-01-01 17:27:00,
2013-01-01 12:30:00,77.2,60.3,30.12,South,174,5.8,5.8,56,0.00,CLR,SCT,0.00,WeatherDisplay:10.37,2013-01-01 17:30:00,
2013-01-01 12:32:00,77.2,60.8,30.12,SSW,194,7.0,7.0,57,0.00,CLR,SCT,0.00,WeatherDisplay:10.37,2013-01-01 17:32:00,
2013-01-01 12:33:00,77.2,60.8,30.12,SSW,200,6.9,6.9,57,0.00,CLR,SCT,0.00,WeatherDisplay:10.37,2013-01-01 17:33:00,
2013-01-01 12:35:00,77.2,60.8,30.12,South,172,4.6,4.6,57,0.00,CLR,SCT,0.00,WeatherDisplay:10.37,2013-01-01 17:35:00,
2013-01-01 12:37:00,77.3,60.4,30.12,South,169,8.1,8.1,56,0.00,CLR,SCT,0.00,WeatherDisplay:10.37,2013-01-01 17:37:00,
2013-01-01 12:38:00,77.4,60.5,30.12,SSE,153,6.9,6.9,56,0.00,CLR,SCT,0.00,WeatherDisplay:10.37,2013-01-01 17:38:00,
2013-01-01 12:40:00,77.4,60.5,30.12,East,89,5.8,5.8,56,0.00,CLR,SCT,0.00,WeatherDisplay:10.37,2013-01-01 17:40:00,
2013-01-01 12:42:00,77.5,61.1,30.11,SSE,148,5.8,5.8,57,0.00,CLR,SCT,0.00,WeatherDisplay:10.37,2013-01-01 17:42:00,
2013-01-01 12:43:00,77.5,60.6,30.11,South,173,5.8,5.8,56,0.00,CLR,SCT,0.00,WeatherDisplay:10.37,2013-01-01 17:43:00,
2013-01-01 12:45:00,77.5,60.6,30.11,SE,129,5.8,5.8,56,0.00,CLR,SCT,0.00,WeatherDisplay:10.37,2013-01-01 17:45:00,
2013-01-01 12:46:00,77.5,61.1,30.11,SSW,195,5.8,5.8,57,0.00,CLR,SCT,0.00,WeatherDisplay:10.37,2013-01-01 17:46:00,
2013-01-01 12:47:00,77.5,61.1,30.11,SSE,154,5.8,5.8,57,0.00,CLR,SCT,0.00,WeatherDisplay:10.37,2013-01-01 17:47:00,
2013-01-01 12:48:00,77.5,60.6,30.11,SSE,159,5.8,5.8,56,0.00,CLR,SCT,0.00,WeatherDisplay:10.37,2013-01-01 17:48:00,
2013-01-01 12:50:00,77.5,61.1,30.11,SW,222,4.6,4.6,57,0.00,CLR,SCT,0.00,WeatherDisplay:10.37,2013-01-01 17:50:00,
2013-01-01 12:51:00,77.6,61.2,30.11,SE,143,4.6,4.6,57,0.00,CLR,SCT,0.00,WeatherDisplay:10.37,2013-01-01 17:51:00,
2013-01-01 12:52:00,77.6,61.2,30.11,SSW,198,4.6,4.6,57,0.00,CLR,SCT,0.00,WeatherDisplay:10.37,2013-01-01 17:52:00,
2013-01-01 12:53:00,77.7,61.3,30.11,South,188,4.6,4.6,57,0.00,CLR,SCT,0.00,WeatherDisplay:10.37,2013-01-01 17:53:00,
2013-01-01 12:55:00,77.9,60.9,30.11,SSW,212,5.8,5.8,56,0.00,CLR,SCT,0.00,WeatherDisplay:10.37,2013-01-01 17:55:00,
2013-01-01 12:56:00,77.9,60.9,30.10,ESE,122,4.6,4.6,56,0.00,CLR,SCT,0.00,WeatherDisplay:10.37,2013-01-01 17:56:00,
2013-01-01 12:57:00,77.9,60.4,30.10,NNE,24,6.9,6.9,55,0.00,CLR,SCT,0.00,WeatherDisplay:10.37,2013-01-01 17:57:00,
2013-01-01 12:59:00,77.9,60.4,30.10,SSE,148,6.0,6.0,55,0.00,CLR,SCT,0.00,WeatherDisplay:10.37,2013-01-01 17:59:00,
2013-01-01 13:00:00,77.8,60.3,30.10,South,174,8.1,8.1,55,0.00,CLR,SCT,0.00,WeatherDisplay:10.37,2013-01-01 18:00:00,
2013-01-01 13:01:00,77.7,60.2,30.10,South,184,8.1,8.1,55,0.00,CLR,SCT,0.00,WeatherDisplay:10.37,2013-01-01 18:01:00,
2013-01-01 13:02:00,77.7,60.2,30.10,NNE,26,8.1,8.1,55,0.00,CLR,SCT,0.00,WeatherDisplay:10.37,2013-01-01 18:02:00,
2013-01-01 13:04:00,77.7,60.2,30.10,SE,146,6.9,6.9,55,0.00,CLR,SCT,0.00,WeatherDisplay:10.37,2013-01-01 18:04:00,
2013-01-01 13:06:00,77.8,60.3,30.10,SSE,162,4.6,4.6,55,0.00,CLR,SCT,0.00,WeatherDisplay:10.37,2013-01-01 18:06:00,
2013-01-01 13:08:00,77.9,60.4,30.10,ESE,103,8.1,8.1,55,0.00,CLR,SCT,0.00,WeatherDisplay:10.37,2013-01-01 18:08:00,
2013-01-01 13:09:00,77.9,60.9,30.10,South,181,6.9,6.9,56,0.00,CLR,SCT,0.00,WeatherDisplay:10.37,2013-01-01 18:09:00,
2013-01-01 13:11:00,78.0,60.5,30.10,SSE,165,6.9,6.9,55,0.00,CLR,SCT,0.00,WeatherDisplay:10.37,2013-01-01 18:11:00,
2013-01-01 13:13:00,78.0,60.5,30.09,SSW,198,3.5,3.5,55,0.00,CLR,SCT,0.00,WeatherDisplay:10.37,2013-01-01 18:13:00,
2013-01-01 13:14:00,78.1,60.6,30.09,South,190,5.8,5.8,55,0.00,CLR,SCT,0.00,WeatherDisplay:10.37,2013-01-01 18:14:00,
2013-01-01 13:16:00,78.1,60.6,30.09,ESE,108,5.8,5.8,55,0.00,CLR,SCT,0.00,WeatherDisplay:10.37,2013-01-01 18:16:00,
2013-01-01 13:18:00,78.2,60.7,30.09,SSE,153,4.6,4.6,55,0.00,CLR,SCT,0.00,WeatherDisplay:10.37,2013-01-01 18:18:00,
2013-01-01 13:19:00,78.3,61.3,30.09,SSE,155,3.5,3.5,56,0.00,CLR,SCT,0.00,WeatherDisplay:10.37,2013-01-01 18:19:00,
2013-01-01 13:21:00,78.4,60.9,30.09,SSE,166,4.6,4.6,55,0.00,CLR,SCT,0.00,WeatherDisplay:10.37,2013-01-01 18:21:00,
2013-01-01 13:23:00,78.5,61.0,30.09,South,172,3.5,3.5,55,0.00,CLR,SCT,0.00,WeatherDisplay:10.37,2013-01-01 18:23:00,
2013-01-01 13:24:00,78.5,61.0,30.09,East,92,6.0,6.0,55,0.00,CLR,SCT,0.00,WeatherDisplay:10.37,2013-01-01 18:24:00,
2013-01-01 13:26:00,78.5,60.5,30.09,SSW,195,3.5,3.5,54,0.00,CLR,SCT,0.00,WeatherDisplay:10.37,2013-01-01 18:26:00,
2013-01-01 13:27:00,78.5,60.5,30.09,South,177,3.5,3.5,54,0.00,CLR,SCT,0.00,WeatherDisplay:10.37,2013-01-01 18:27:00,
2013-01-01 13:28:00,78.5,61.0,30.09,WSW,243,4.0,4.0,55,0.00,CLR,SCT,0.00,WeatherDisplay:10.37,2013-01-01 18:28:00,
2013-01-01 13:30:00,78.6,60.6,30.09,ESE,115,6.9,6.9,54,0.00,CLR,SCT,0.00,WeatherDisplay:10.37,2013-01-01 18:30:00,
2013-01-01 13:31:00,78.6,60.6,30.09,SSW,212,4.6,4.6,54,0.00,CLR,SCT,0.00,WeatherDisplay:10.37,2013-01-01 18:31:00,
2013-01-01 13:33:00,78.6,61.1,30.09,South,171,4.6,4.6,55,0.00,CLR,SCT,0.00,WeatherDisplay:10.37,2013-01-01 18:33:00,
2013-01-01 13:34:00,78.7,61.2,30.08,WSW,238,3.5,3.5,55,0.00,CLR,SCT,0.00,WeatherDisplay:10.37,2013-01-01 18:34:00,
2013-01-01 13:36:00,78.8,60.7,30.08,SSW,201,5.8,5.8,54,0.00,CLR,SCT,0.00,WeatherDisplay:10.37,2013-01-01 18:36:00,
2013-01-01 13:38:00,78.9,60.8,30.08,SE,146,3.5,3.5,54,0.00,CLR,SCT,0.00,WeatherDisplay:10.37,2013-01-01 18:38:00,
2013-01-01 13:40:00,79.0,60.4,30.08,SW,225,2.3,2.3,53,0.00,CLR,SCT,0.00,WeatherDisplay:10.37,2013-01-01 18:40:00,
2013-01-01 13:41:00,79.1,60.5,30.08,SE,142,3.5,3.5,53,0.00,CLR,SCT,0.00,WeatherDisplay:10.37,2013-01-01 18:41:00,
2013-01-01 13:43:00,79.2,60.6,30.08,SSE,153,3.5,3.5,53,0.00,CLR,SCT,0.00,WeatherDisplay:10.37,2013-01-01 18:43:00,
2013-01-01 13:45:00,79.3,60.7,30.08,SE,125,3.5,3.5,53,0.00,CLR,SCT,0.00,WeatherDisplay:10.37,2013-01-01 18:45:00,
2013-01-01 13:46:00,79.4,60.8,30.08,South,184,3.5,3.5,53,0.00,CLR,SCT,0.00,WeatherDisplay:10.37,2013-01-01 18:46:00,
2013-01-01 13:48:00,79.6,61.0,30.08,South,176,3.5,3.5,53,0.00,CLR,SCT,0.00,WeatherDisplay:10.37,2013-01-01 18:48:00,
2013-01-01 13:50:00,79.5,60.9,30.08,SSE,148,2.3,2.3,53,0.00,CLR,SCT,0.00,WeatherDisplay:10.37,2013-01-01 18:50:00,
2013-01-01 13:52:00,79.6,61.0,30.08,South,186,2.3,2.3,53,0.00,CLR,SCT,0.00,WeatherDisplay:10.37,2013-01-01 18:52:00,
2013-01-01 13:53:00,79.7,61.1,30.08,South,179,3.0,3.0,53,0.00,CLR,SCT,0.00,WeatherDisplay:10.37,2013-01-01 18:53:00,
2013-01-01 13:54:00,79.7,61.1,30.08,South,170,3.5,3.5,53,0.00,CLR,SCT,0.00,WeatherDisplay:10.37,2013-01-01 18:54:00,
2013-01-01 13:55:00,79.7,61.1,30.08,SSE,167,2.0,3.0,53,0.00,CLR,SCT,0.00,WeatherDisplay:10.37,2013-01-01 18:55:00,
2013-01-01 13:57:00,79.7,61.1,30.08,ESE,122,2.3,2.3,53,0.00,CLR,SCT,0.00,WeatherDisplay:10.37,2013-01-01 18:57:00,
2013-01-01 13:59:00,79.8,61.1,30.07,SE,141,2.3,2.3,53,0.00,CLR,SCT,0.00,WeatherDisplay:10.37,2013-01-01 18:59:00,
2013-01-01 14:00:00,79.8,61.1,30.07,SSW,201,3.5,3.5,53,0.00,CLR,SCT,0.00,WeatherDisplay:10.37,2013-01-01 19:00:00,
2013-01-01 14:02:00,79.7,60.5,30.07,SW,215,6.9,6.9,52,0.00,CLR,SCT,0.00,WeatherDisplay:10.37,2013-01-01 19:02:00,
2013-01-01 14:04:00,79.5,60.3,30.07,South,174,3.5,3.5,52,0.00,CLR,SCT,0.00,WeatherDisplay:10.37,2013-01-01 19:04:00,
2013-01-01 14:05:00,79.4,60.2,30.07,South,174,6.9,6.9,52,0.00,CLR,SCT,0.00,WeatherDisplay:10.37,2013-01-01 19:05:00,
2013-01-01 14:07:00,79.4,60.8,30.07,SSE,148,3.5,3.5,53,0.00,CLR,SCT,0.00,WeatherDisplay:10.37,2013-01-01 19:07:00,
2013-01-01 14:09:00,79.4,60.2,30.07,South,172,2.3,2.3,52,0.00,CLR,SCT,0.00,WeatherDisplay:10.37,2013-01-01 19:09:00,
2013-01-01 14:10:00,79.5,60.9,30.07,SSW,207,4.0,4.0,53,0.00,CLR,SCT,0.00,WeatherDisplay:10.37,2013-01-01 19:10:00,
2013-01-01 14:12:00,79.7,60.5,30.07,SSW,201,3.0,3.0,52,0.00,CLR,SCT,0.00,WeatherDisplay:10.37,2013-01-01 19:12:00,
2013-01-01 14:14:00,79.8,61.1,30.07,SE,129,2.3,2.3,53,0.00,CLR,SCT,0.00,WeatherDisplay:10.37,2013-01-01 19:14:00,
2013-01-01 14:15:00,79.9,61.2,30.07,South,178,3.0,3.0,53,0.00,CLR,SCT,0.00,WeatherDisplay:10.37,2013-01-01 19:15:00,
2013-01-01 14:17:00,79.9,60.7,30.07,South,170,5.8,5.8,52,0.00,CLR,SCT,0.00,WeatherDisplay:10.37,2013-01-01 19:17:00,
2013-01-01 14:19:00,80.0,60.8,30.07,SSE,159,4.0,4.0,52,0.00,CLR,SCT,0.00,WeatherDisplay:10.37,2013-01-01 19:19:00,
2013-01-01 14:20:00,80.0,60.8,30.07,SW,222,3.5,3.5,52,0.00,CLR,SCT,0.00,WeatherDisplay:10.37,2013-01-01 19:20:00,
2013-01-01 14:22:00,80.1,60.9,30.07,SSE,164,2.0,2.0,52,0.00,CLR,SCT,0.00,WeatherDisplay:10.37,2013-01-01 19:22:00,
2013-01-01 14:24:00,80.1,60.9,30.06,ESE,123,3.5,3.5,52,0.00,CLR,SCT,0.00,WeatherDisplay:10.37,2013-01-01 19:24:00,
2013-01-01 14:26:00,80.0,60.8,30.07,South,172,3.5,3.5,52,0.00,CLR,SCT,0.00,WeatherDisplay:10.37,2013-01-01 19:26:00,
2013-01-01 14:27:00,80.0,60.8,30.06,SE,143,3.5,3.5,52,0.00,CLR,SCT,0.00,WeatherDisplay:10.37,2013-01-01 19:27:00,
2013-01-01 14:29:00,80.0,60.8,30.06,SSW,204,3.5,3.5,52,0.00,CLR,SCT,0.00,WeatherDisplay:10.37,2013-01-01 19:29:00,
2013-01-01 14:31:00,80.1,60.9,30.06,ESE,122,3.5,3.5,52,0.00,CLR,SCT,0.00,WeatherDisplay:10.37,2013-01-01 19:31:00,
2013-01-01 14:32:00,80.1,61.4,30.06,SSW,210,2.3,2.3,53,0.00,CLR,SCT,0.00,WeatherDisplay:10.37,2013-01-01 19:32:00,
2013-01-01 14:34:00,80.3,61.1,30.06,SSW,195,4.6,4.6,52,0.00,CLR,SCT,0.00,WeatherDisplay:10.37,2013-01-01 19:34:00,
2013-01-01 14:35:00,80.3,61.1,30.06,SSE,163,4.6,4.6,52,0.00,CLR,SCT,0.00,WeatherDisplay:10.37,2013-01-01 19:35:00,
2013-01-01 14:36:00,80.3,61.1,30.06,SSE,150,3.5,3.5,52,0.00,CLR,SCT,0.00,WeatherDisplay:10.37,2013-01-01 19:36:00,
2013-01-01 14:37:00,80.3,61.1,30.07,SW,214,4.6,4.6,52,0.00,CLR,SCT,0.00,WeatherDisplay:10.37,2013-01-01 19:37:00,
2013-01-01 14:40:00,80.3,60.5,30.07,South,173,3.0,5.0,51,0.00,CLR,SCT,0.00,WeatherDisplay:10.37,2013-01-01 19:40:00,
2013-01-01 14:41:00,80.1,60.9,30.07,East,91,2.3,2.3,52,0.00,CLR,SCT,0.00,WeatherDisplay:10.37,2013-01-01 19:41:00,
2013-01-01 14:42:00,80.1,61.4,30.07,SE,131,4.6,4.6,53,0.00,CLR,SCT,0.00,WeatherDisplay:10.37,2013-01-01 19:42:00,
2013-01-01 14:45:00,80.0,60.8,30.07,SSE,151,2.3,2.3,52,0.00,CLR,SCT,0.00,WeatherDisplay:10.37,2013-01-01 19:45:00,
2013-01-01 14:46:00,79.9,60.7,30.07,South,186,3.5,3.5,52,0.00,CLR,SCT,0.00,WeatherDisplay:10.37,2013-01-01 19:46:00,
2013-01-01 14:48:00,79.6,60.4,30.07,South,177,3.0,3.0,52,0.00,CLR,SCT,0.00,WeatherDisplay:10.37,2013-01-01 19:48:00,
2013-01-01 14:50:00,79.3,61.2,30.07,ESE,120,4.6,4.6,54,0.00,CLR,SCT,0.00,WeatherDisplay:10.37,2013-01-01 19:50:00,
2013-01-01 14:51:00,79.3,61.2,30.07,SE,129,1.1,1.1,54,0.00,CLR,SCT,0.00,WeatherDisplay:10.37,2013-01-01 19:51:00,
2013-01-01 14:53:00,79.4,61.3,30.07,SSW,205,2.3,2.3,54,0.00,CLR,SCT,0.00,WeatherDisplay:10.37,2013-01-01 19:53:00,
2013-01-01 14:55:00,79.7,60.5,30.06,SSE,148,4.6,4.6,52,0.00,CLR,SCT,0.00,WeatherDisplay:10.37,2013-01-01 19:55:00,
2013-01-01 14:56:00,79.8,60.6,30.06,South,188,2.3,2.3,52,0.00,CLR,SCT,0.00,WeatherDisplay:10.37,2013-01-01 19:56:00,
2013-01-01 14:58:00,79.9,60.7,30.06,ESE,112,3.5,3.5,52,0.00,CLR,SCT,0.00,WeatherDisplay:10.37,2013-01-01 19:58:00,
2013-01-01 15:00:00,79.9,60.7,30.06,SSW,193,3.5,3.5,52,0.00,CLR,SCT,0.00,WeatherDisplay:10.37,2013-01-01 20:00:00,
2013-01-01 15:01:00,80.0,60.8,30.06,South,191,3.5,3.5,52,0.00,CLR,SCT,0.00,WeatherDisplay:10.37,2013-01-01 20:01:00,
2013-01-01 15:03:00,80.0,60.8,30.06,SE,146,3.5,3.5,52,0.00,CLR,SCT,0.00,WeatherDisplay:10.37,2013-01-01 20:03:00,
2013-01-01 15:06:00,80.3,61.1,30.06,South,174,2.3,2.3,52,0.00,CLR,SCT,0.00,WeatherDisplay:10.37,2013-01-01 20:06:00,
2013-01-01 15:08:00,80.4,61.2,30.06,South,172,2.3,2.3,52,0.00,CLR,SCT,0.00,WeatherDisplay:10.37,2013-01-01 20:08:00,
2013-01-01 15:11:00,80.5,61.3,30.06,SSE,166,2.3,2.3,52,0.00,CLR,SCT,0.00,WeatherDisplay:10.37,2013-01-01 20:11:00,
2013-01-01 15:13:00,80.3,60.5,30.06,South,191,2.3,2.3,51,0.00,CLR,SCT,0.00,WeatherDisplay:10.37,2013-01-01 20:13:00,
2013-01-01 15:16:00,80.2,61.0,30.06,SSW,210,2.3,2.3,52,0.00,CLR,SCT,0.00,WeatherDisplay:10.37,2013-01-01 20:16:00,
2013-01-01 15:18:00,80.1,60.9,30.06,SE,145,3.5,3.5,52,0.00,CLR,SCT,0.00,WeatherDisplay:10.37,2013-01-01 20:18:00,
2013-01-01 15:21:00,80.1,60.9,30.06,WNW,288,2.0,2.0,52,0.00,CLR,SCT,0.00,WeatherDisplay:10.37,2013-01-01 20:21:00,
2013-01-01 15:22:00,80.2,60.4,30.06,SSE,151,2.0,2.0,51,0.00,CLR,SCT,0.00,WeatherDisplay:10.37,2013-01-01 20:22:00,
2013-01-01 15:23:00,80.3,60.5,30.06,SE,145,2.0,2.0,51,0.00,CLR,SCT,0.00,WeatherDisplay:10.37,2013-01-01 20:23:00,
2013-01-01 15:26:00,80.3,60.5,30.06,SE,132,4.6,4.6,51,0.00,CLR,SCT,0.00,WeatherDisplay:10.37,2013-01-01 20:26:00,
2013-01-01 15:27:00,80.3,60.5,30.06,SSE,162,2.3,2.3,51,0.00,CLR,SCT,0.00,WeatherDisplay:10.37,2013-01-01 20:27:00,
2013-01-01 15:29:00,80.4,61.2,30.06,SSW,201,1.1,1.1,52,0.00,CLR,SCT,0.00,WeatherDisplay:10.37,2013-01-01 20:29:00,
2013-01-01 15:31:00,80.4,61.2,30.06,SSW,193,3.5,3.5,52,0.00,CLR,SCT,0.00,WeatherDisplay:10.37,2013-01-01 20:31:00,
2013-01-01 15:32:00,80.4,61.2,30.06,SSW,204,2.3,2.3,52,0.00,CLR,SCT,0.00,WeatherDisplay:10.37,2013-01-01 20:32:00,
2013-01-01 15:34:00,80.3,61.1,30.06,SSE,156,2.0,2.0,52,0.00,CLR,SCT,0.00,WeatherDisplay:10.37,2013-01-01 20:34:00,
2013-01-01 15:36:00,80.3,61.1,30.06,SSE,160,3.5,3.5,52,0.00,CLR,SCT,0.00,WeatherDisplay:10.37,2013-01-01 20:36:00,
2013-01-01 15:37:00,80.3,61.1,30.06,SW,225,2.3,2.3,52,0.00,CLR,SCT,0.00,WeatherDisplay:10.37,2013-01-01 20:37:00,
2013-01-01 15:39:00,80.3,61.1,30.06,SSE,158,2.3,2.3,52,0.00,CLR,SCT,0.00,WeatherDisplay:10.37,2013-01-01 20:39:00,
2013-01-01 15:41:00,80.3,61.1,30.06,SW,214,3.5,3.5,52,0.00,CLR,SCT,0.00,WeatherDisplay:10.37,2013-01-01 20:41:00,
2013-01-01 15:42:00,80.3,61.1,30.06,SSE,148,2.3,2.3,52,0.00,CLR,SCT,0.00,WeatherDisplay:10.37,2013-01-01 20:42:00,
2013-01-01 15:44:00,80.2,61.0,30.06,SSW,208,3.5,3.5,52,0.00,CLR,SCT,0.00,WeatherDisplay:10.37,2013-01-01 20:44:00,
2013-01-01 15:46:00,80.2,61.0,30.06,South,190,1.1,1.1,52,0.00,CLR,SCT,0.00,WeatherDisplay:10.37,2013-01-01 20:46:00,
2013-01-01 15:47:00,80.3,61.1,30.06,South,190,2.0,2.0,52,0.00,CLR,SCT,0.00,WeatherDisplay:10.37,2013-01-01 20:47:00,
2013-01-01 15:48:00,80.3,61.1,30.06,South,191,2.3,2.3,52,0.00,CLR,SCT,0.00,WeatherDisplay:10.37,2013-01-01 20:48:00,
2013-01-01 15:49:00,80.2,61.0,30.06,SW,215,3.5,3.5,52,0.00,CLR,SCT,0.00,WeatherDisplay:10.37,2013-01-01 20:49:00,
2013-01-01 15:51:00,80.1,60.9,30.06,SSW,192,2.3,2.3,52,0.00,CLR,SCT,0.00,WeatherDisplay:10.37,2013-01-01 20:51:00,
2013-01-01 15:52:00,80.0,60.8,30.06,South,188,0.0,0.0,52,0.00,CLR,SCT,0.00,WeatherDisplay:10.37,2013-01-01 20:52:00,
2013-01-01 15:53:00,80.0,60.8,30.06,SSE,154,1.1,1.1,52,0.00,CLR,SCT,0.00,WeatherDisplay:10.37,2013-01-01 20:53:00,
2013-01-01 15:54:00,79.9,60.7,30.06,SSW,204,1.1,1.1,52,0.00,CLR,SCT,0.00,WeatherDisplay:10.37,2013-01-01 20:54:00,
2013-01-01 15:56:00,79.6,61.0,30.06,South,169,2.3,2.3,53,0.00,CLR,SCT,0.00,WeatherDisplay:10.37,2013-01-01 20:56:00,
2013-01-01 15:58:00,79.4,60.8,30.06,South,181,2.3,2.3,53,0.00,CLR,SCT,0.00,WeatherDisplay:10.37,2013-01-01 20:58:00,
2013-01-01 15:59:00,79.2,61.1,30.06,SSW,198,2.3,2.3,54,0.00,CLR,SCT,0.00,WeatherDisplay:10.37,2013-01-01 20:59:00,
2013-01-01 16:02:00,78.9,60.8,30.06,SSE,167,1.1,1.1,54,0.00,CLR,SCT,0.00,WeatherDisplay:10.37,2013-01-01 21:02:00,
2013-01-01 16:03:00,78.8,60.7,30.06,SSE,150,2.3,2.3,54,0.00,CLR,SCT,0.00,WeatherDisplay:10.37,2013-01-01 21:03:00,
2013-01-01 16:04:00,78.6,60.6,30.06,West,262,3.5,3.5,54,0.00,CLR,SCT,0.00,WeatherDisplay:10.37,2013-01-01 21:04:00,
2013-01-01 16:07:00,78.3,60.3,30.06,SSW,210,1.1,1.1,54,0.00,CLR,SCT,0.00,WeatherDisplay:10.37,2013-01-01 21:07:00,
2013-01-01 16:08:00,78.2,60.2,30.06,SSE,155,2.3,2.3,54,0.00,CLR,SCT,0.00,WeatherDisplay:10.37,2013-01-01 21:08:00,
2013-01-01 16:09:00,78.0,60.5,30.06,SSE,156,2.3,2.3,55,0.00,CLR,SCT,0.00,WeatherDisplay:10.37,2013-01-01 21:09:00,
2013-01-01 16:12:00,77.8,60.3,30.06,SSW,210,1.1,1.1,55,0.00,CLR,SCT,0.00,WeatherDisplay:10.37,2013-01-01 21:12:00,
2013-01-01 16:13:00,77.7,60.8,30.06,SSE,150,1.1,1.1,56,0.00,CLR,SCT,0.00,WeatherDisplay:10.37,2013-01-01 21:13:00,
2013-01-01 16:14:00,77.6,60.7,30.06,SSE,156,2.3,2.3,56,0.00,CLR,SCT,0.00,WeatherDisplay:10.37,2013-01-01 21:14:00,
2013-01-01 16:17:00,77.4,60.5,30.06,SE,143,2.0,2.0,56,0.00,CLR,SCT,0.00,WeatherDisplay:10.37,2013-01-01 21:17:00,
2013-01-01 16:18:00,77.3,60.4,30.06,SW,225,2.3,2.3,56,0.00,CLR,SCT,0.00,WeatherDisplay:10.37,2013-01-01 21:18:00,
2013-01-01 16:20:00,77.0,60.6,30.06,South,189,1.1,1.1,57,0.00,CLR,SCT,0.00,WeatherDisplay:10.37,2013-01-01 21:20:00,
2013-01-01 16:22:00,76.8,60.4,30.06,SSW,194,2.3,2.3,57,0.00,CLR,SCT,0.00,WeatherDisplay:10.37,2013-01-01 21:22:00,
2013-01-01 16:23:00,76.6,60.2,30.06,SSE,157,2.3,2.3,57,0.00,CLR,SCT,0.00,WeatherDisplay:10.37,2013-01-01 21:23:00,
2013-01-01 16:24:00,76.5,60.1,30.06,SW,226,2.3,2.3,57,0.00,CLR,SCT,0.00,WeatherDisplay:10.37,2013-01-01 21:24:00,
2013-01-01 16:25:00,76.4,60.0,30.06,SE,136,2.3,2.3,57,0.00,CLR,SCT,0.00,WeatherDisplay:10.37,2013-01-01 21:25:00,
2013-01-01 16:27:00,76.2,60.3,30.06,SSW,212,1.1,1.1,58,0.00,CLR,SCT,0.00,WeatherDisplay:10.37,2013-01-01 21:27:00,
2013-01-01 16:28:00,76.2,60.3,30.06,SW,215,1.1,1.1,58,0.00,CLR,SCT,0.00,WeatherDisplay:10.37,2013-01-01 21:28:00,
2013-01-01 16:29:00,76.1,60.7,30.06,SW,215,1.1,0.0,59,0.00,CLR,SCT,0.00,WeatherDisplay:10.37,2013-01-01 21:29:00,
2013-01-01 16:30:00,76.0,60.6,30.06,South,176,2.3,2.3,59,0.00,CLR,SCT,0.00,WeatherDisplay:10.37,2013-01-01 21:30:00,
2013-01-01 16:33:00,75.8,60.4,30.06,SSE,159,1.1,1.1,59,0.00,CLR,SCT,0.00,WeatherDisplay:10.37,2013-01-01 21:33:00,
2013-01-01 16:34:00,75.8,60.4,30.06,SSE,159,1.1,0.0,59,0.00,CLR,SCT,0.00,WeatherDisplay:10.37,2013-01-01 21:34:00,
2013-01-01 16:36:00,75.7,60.8,30.06,SSE,159,0.0,0.0,60,0.00,CLR,SCT,0.00,WeatherDisplay:10.37,2013-01-01 21:36:00,
2013-01-01 16:38:00,75.6,60.3,30.06,SSE,159,0.0,0.0,59,0.00,CLR,SCT,0.00,WeatherDisplay:10.37,2013-01-01 21:38:00,
2013-01-01 16:39:00,75.5,60.6,30.06,SSE,159,0.0,0.0,60,0.00,CLR,SCT,0.00,WeatherDisplay:10.37,2013-01-01 21:39:00,
2013-01-01 16:41:00,75.5,60.6,30.06,SSE,150,1.1,1.1,60,0.00,CLR,SCT,0.00,WeatherDisplay:10.37,2013-01-01 21:41:00,
2013-01-01 16:43:00,75.4,60.5,30.06,SSE,151,0.0,0.0,60,0.00,CLR,SCT,0.00,WeatherDisplay:10.37,2013-01-01 21:43:00,
2013-01-01 16:44:00,75.4,60.5,30.06,SSE,150,0.0,0.0,60,0.00,CLR,SCT,0.00,WeatherDisplay:10.37,2013-01-01 21:44:00,
2013-01-01 16:47:00,75.2,60.4,30.06,SE,138,1.1,1.1,60,0.00,CLR,SCT,0.00,WeatherDisplay:10.37,2013-01-01 21:47:00,
2013-01-01 16:49:00,75.2,60.8,30.06,SSW,194,1.1,0.0,61,0.00,CLR,SCT,0.00,WeatherDisplay:10.37,2013-01-01 21:49:00,
2013-01-01 16:52:00,74.9,60.5,30.06,South,176,0.0,0.0,61,0.00,CLR,SCT,0.00,WeatherDisplay:10.37,2013-01-01 21:52:00,
2013-01-01 16:54:00,74.8,60.4,30.06,South,177,0.0,0.0,61,0.00,CLR,SCT,0.00,WeatherDisplay:10.37,2013-01-01 21:54:00,
2013-01-01 16:55:00,74.8,60.4,30.06,South,177,0.0,0.0,61,0.00,CLR,SCT,0.00,WeatherDisplay:10.37,2013-01-01 21:55:00,
2013-01-01 16:57:00,74.6,60.3,30.06,South,177,0.0,0.0,61,0.00,CLR,SCT,0.00,WeatherDisplay:10.37,2013-01-01 21:57:00,
2013-01-01 16:59:00,74.5,60.6,30.06,South,177,0.0,0.0,62,0.00,CLR,SCT,0.00,WeatherDisplay:10.37,2013-01-01 21:59:00,
2013-01-01 17:00:00,74.4,60.5,30.06,South,177,0.0,0.0,62,0.00,CLR,SCT,0.00,WeatherDisplay:10.37,2013-01-01 22:00:00,
2013-01-01 17:02:00,74.3,60.4,30.06,South,177,0.0,0.0,62,0.00,CLR,SCT,0.00,WeatherDisplay:10.37,2013-01-01 22:02:00,
2013-01-01 17:04:00,74.3,60.4,30.06,South,177,0.0,0.0,62,0.00,CLR,SCT,0.00,WeatherDisplay:10.37,2013-01-01 22:04:00,
2013-01-01 17:05:00,74.2,60.3,30.06,South,177,0.0,0.0,62,0.00,CLR,SCT,0.00,WeatherDisplay:10.37,2013-01-01 22:05:00,
2013-01-01 17:07:00,74.1,60.2,30.06,South,170,0.0,0.0,62,0.00,CLR,SCT,0.00,WeatherDisplay:10.37,2013-01-01 22:07:00,
2013-01-01 17:09:00,74.1,60.2,30.06,South,170,0.0,0.0,62,0.00,CLR,SCT,0.00,WeatherDisplay:10.37,2013-01-01 22:09:00,
2013-01-01 17:10:00,74.0,60.2,30.06,South,170,0.0,0.0,62,0.00,CLR,SCT,0.00,WeatherDisplay:10.37,2013-01-01 22:10:00,
2013-01-01 17:12:00,74.0,60.6,30.06,South,170,0.0,0.0,63,0.00,CLR,SCT,0.00,WeatherDisplay:10.37,2013-01-01 22:12:00,
2013-01-01 17:14:00,73.9,60.5,30.06,South,170,0.0,0.0,63,0.00,CLR,SCT,0.00,WeatherDisplay:10.37,2013-01-01 22:14:00,
2013-01-01 17:15:00,73.9,60.5,30.06,South,170,0.0,0.0,63,0.00,CLR,SCT,0.00,WeatherDisplay:10.37,2013-01-01 22:15:00,
2013-01-01 17:17:00,73.8,60.4,30.06,South,170,0.0,0.0,63,0.00,CLR,SCT,0.00,WeatherDisplay:10.37,2013-01-01 22:17:00,
2013-01-01 17:19:00,73.7,60.3,30.06,South,170,0.0,0.0,63,0.00,CLR,SCT,0.00,WeatherDisplay:10.37,2013-01-01 22:19:00,
2013-01-01 17:20:00,73.7,60.3,30.06,South,170,0.0,0.0,63,0.00,CLR,SCT,0.00,WeatherDisplay:10.37,2013-01-01 22:20:00,
2013-01-01 17:23:00,73.6,60.2,30.06,South,170,0.0,0.0,63,0.00,CLR,SCT,0.00,WeatherDisplay:10.37,2013-01-01 22:23:00,
2013-01-01 17:25:00,73.5,60.6,30.06,South,170,0.0,0.0,64,0.00,CLR,SCT,0.00,WeatherDisplay:10.37,2013-01-01 22:25:00,
2013-01-01 17:26:00,73.5,60.6,30.06,South,171,0.0,0.0,64,0.00,CLR,SCT,0.00,WeatherDisplay:10.37,2013-01-01 22:26:00,
2013-01-01 17:28:00,73.3,60.4,30.06,South,170,0.0,0.0,64,0.00,CLR,SCT,0.00,WeatherDisplay:10.37,2013-01-01 22:28:00,
2013-01-01 17:30:00,73.1,60.6,30.06,South,171,0.0,0.0,65,0.00,CLR,SCT,0.00,WeatherDisplay:10.37,2013-01-01 22:30:00,
2013-01-01 17:31:00,73.0,60.5,30.06,South,171,0.0,0.0,65,0.00,CLR,SCT,0.00,WeatherDisplay:10.37,2013-01-01 22:31:00,
2013-01-01 17:33:00,72.8,60.3,30.06,South,170,0.0,0.0,65,0.00,CLR,SCT,0.00,WeatherDisplay:10.37,2013-01-01 22:33:00,
2013-01-01 17:35:00,72.6,60.2,30.06,South,170,0.0,0.0,65,0.00,CLR,SCT,0.00,WeatherDisplay:10.37,2013-01-01 22:35:00,
2013-01-01 17:36:00,72.5,60.1,30.06,South,170,0.0,0.0,65,0.00,CLR,SCT,0.00,WeatherDisplay:10.37,2013-01-01 22:36:00,
2013-01-01 17:38:00,72.3,60.3,30.06,South,170,0.0,0.0,66,0.00,CLR,SCT,0.00,WeatherDisplay:10.37,2013-01-01 22:38:00,
2013-01-01 17:40:00,72.1,60.1,30.06,South,170,0.0,0.0,66,0.00,CLR,SCT,0.00,WeatherDisplay:10.37,2013-01-01 22:40:00,
2013-01-01 17:41:00,72.0,60.0,30.06,South,171,0.0,0.0,66,0.00,CLR,SCT,0.00,WeatherDisplay:10.37,2013-01-01 22:41:00,
2013-01-01 17:43:00,71.8,59.8,30.06,South,170,0.0,0.0,66,0.00,CLR,SCT,0.00,WeatherDisplay:10.37,2013-01-01 22:43:00,
2013-01-01 17:45:00,71.7,60.2,30.06,South,171,0.0,0.0,67,0.00,CLR,SCT,0.00,WeatherDisplay:10.37,2013-01-01 22:45:00,
2013-01-01 17:46:00,71.6,60.1,30.06,South,170,0.0,0.0,67,0.00,CLR,SCT,0.00,WeatherDisplay:10.37,2013-01-01 22:46:00,
2013-01-01 17:48:00,71.5,60.0,30.06,South,170,0.0,0.0,67,0.00,CLR,SCT,0.00,WeatherDisplay:10.37,2013-01-01 22:48:00,
2013-01-01 17:50:00,71.3,59.8,30.06,South,170,0.0,0.0,67,0.00,CLR,SCT,0.00,WeatherDisplay:10.37,2013-01-01 22:50:00,
2013-01-01 17:51:00,71.3,59.8,30.06,South,170,0.0,0.0,67,0.00,CLR,SCT,0.00,WeatherDisplay:10.37,2013-01-01 22:51:00,
2013-01-01 17:53:00,71.0,59.9,30.06,South,170,0.0,0.0,68,0.00,CLR,SCT,0.00,WeatherDisplay:10.37,2013-01-01 22:53:00,
2013-01-01 17:56:00,70.9,59.8,30.06,South,170,0.0,0.0,68,0.00,CLR,SCT,0.00,WeatherDisplay:10.37,2013-01-01 22:56:00,
2013-01-01 17:58:00,70.7,60.0,30.06,South,170,0.0,0.0,69,0.00,CLR,SCT,0.00,WeatherDisplay:10.37,2013-01-01 22:58:00,
2013-01-01 18:01:00,70.6,59.9,30.06,South,170,0.0,0.0,69,0.00,CLR,SCT,0.00,WeatherDisplay:10.37,2013-01-01 23:01:00,
2013-01-01 18:03:00,70.4,59.7,30.06,South,170,0.0,0.0,69,0.00,CLR,SCT,0.00,WeatherDisplay:10.37,2013-01-01 23:03:00,
2013-01-01 18:06:00,70.3,59.6,30.06,South,170,0.0,0.0,69,0.00,CLR,SCT,0.00,WeatherDisplay:10.37,2013-01-01 23:06:00,
2013-01-01 18:07:00,70.2,59.6,30.06,South,170,0.0,0.0,69,0.00,CLR,SCT,0.00,WeatherDisplay:10.37,2013-01-01 23:07:00,
2013-01-01 18:09:00,70.1,59.9,30.06,South,170,0.0,0.0,70,0.00,CLR,SCT,0.00,WeatherDisplay:10.37,2013-01-01 23:09:00,
2013-01-01 18:11:00,70.1,59.9,30.06,South,171,0.0,0.0,70,0.00,CLR,SCT,0.00,WeatherDisplay:10.37,2013-01-01 23:11:00,
2013-01-01 18:12:00,70.0,59.8,30.06,South,170,0.0,0.0,70,0.00,CLR,SCT,0.00,WeatherDisplay:10.37,2013-01-01 23:12:00,
2013-01-01 18:15:00,69.9,59.7,30.06,South,170,0.0,0.0,70,0.00,CLR,SCT,0.00,WeatherDisplay:10.37,2013-01-01 23:15:00,
2013-01-01 18:17:00,69.8,59.6,30.06,South,170,0.0,0.0,70,0.00,CLR,SCT,0.00,WeatherDisplay:10.37,2013-01-01 23:17:00,
2013-01-01 18:20:00,69.6,59.8,30.06,South,170,0.0,0.0,71,0.00,CLR,SCT,0.00,WeatherDisplay:10.37,2013-01-01 23:20:00,
2013-01-01 18:22:00,69.6,59.8,30.06,South,170,0.0,0.0,71,0.00,CLR,SCT,0.00,WeatherDisplay:10.37,2013-01-01 23:22:00,
2013-01-01 18:25:00,69.6,60.2,30.06,South,170,0.0,0.0,72,0.00,CLR,SCT,0.00,WeatherDisplay:10.37,2013-01-01 23:25:00,
2013-01-01 18:27:00,69.5,60.1,30.06,South,170,0.0,0.0,72,0.00,CLR,SCT,0.00,WeatherDisplay:10.37,2013-01-01 23:27:00,
2013-01-01 18:30:00,69.5,60.1,30.06,South,170,0.0,0.0,72,0.00,CLR,SCT,0.00,WeatherDisplay:10.37,2013-01-01 23:30:00,
2013-01-01 18:32:00,69.5,60.1,30.07,South,170,0.0,0.0,72,0.00,CLR,SCT,0.00,WeatherDisplay:10.37,2013-01-01 23:32:00,
2013-01-01 18:33:00,69.5,60.1,30.07,South,170,0.0,0.0,72,0.00,CLR,SCT,0.00,WeatherDisplay:10.37,2013-01-01 23:33:00,
2013-01-01 18:35:00,69.4,60.0,30.07,South,170,0.0,0.0,72,0.00,CLR,SCT,0.00,WeatherDisplay:10.37,2013-01-01 23:35:00,
2013-01-01 18:37:00,69.4,60.0,30.07,South,170,0.0,0.0,72,0.00,CLR,SCT,0.00,WeatherDisplay:10.37,2013-01-01 23:37:00,
2013-01-01 18:38:00,69.3,59.9,30.07,South,170,0.0,0.0,72,0.00,CLR,SCT,0.00,WeatherDisplay:10.37,2013-01-01 23:38:00,
2013-01-01 18:40:00,69.2,59.8,30.07,South,170,0.0,0.0,72,0.00,CLR,SCT,0.00,WeatherDisplay:10.37,2013-01-01 23:40:00,
2013-01-01 18:43:00,69.1,59.7,30.07,South,170,0.0,0.0,72,0.00,CLR,SCT,0.00,WeatherDisplay:10.37,2013-01-01 23:43:00,
2013-01-01 18:46:00,69.0,60.0,30.07,South,170,0.0,0.0,73,0.00,CLR,SCT,0.00,WeatherDisplay:10.37,2013-01-01 23:46:00,
2013-01-01 18:48:00,69.0,60.0,30.07,South,170,0.0,0.0,73,0.00,CLR,SCT,0.00,WeatherDisplay:10.37,2013-01-01 23:48:00,
2013-01-01 18:51:00,68.8,60.2,30.07,South,170,0.0,0.0,74,0.00,CLR,SCT,0.00,WeatherDisplay:10.37,2013-01-01 23:51:00,
2013-01-01 18:53:00,68.7,60.1,30.07,South,170,0.0,0.0,74,0.00,CLR,SCT,0.00,WeatherDisplay:10.37,2013-01-01 23:53:00,
2013-01-01 18:56:00,68.5,60.3,30.07,South,170,0.0,0.0,75,0.00,CLR,SCT,0.00,WeatherDisplay:10.37,2013-01-01 23:56:00,
2013-01-01 18:58:00,68.4,60.2,30.07,South,171,0.0,0.0,75,0.00,CLR,SCT,0.00,WeatherDisplay:10.37,2013-01-01 23:58:00,
2013-01-01 19:01:00,68.1,60.2,30.07,South,170,0.0,0.0,76,0.00,CLR,SCT,0.00,WeatherDisplay:10.37,2013-01-02 00:01:00,
2013-01-01 19:03:00,68.1,60.2,30.07,South,170,0.0,0.0,76,0.00,CLR,SCT,0.00,WeatherDisplay:10.37,2013-01-02 00:03:00,
2013-01-01 19:07:00,67.8,60.0,30.07,South,170,0.0,0.0,76,0.00,CLR,SCT,0.00,WeatherDisplay:10.37,2013-01-02 00:07:00,
2013-01-01 19:08:00,67.7,59.9,30.07,South,170,0.0,0.0,76,0.00,CLR,SCT,0.00,WeatherDisplay:10.37,2013-01-02 00:08:00,
2013-01-01 19:12:00,67.6,59.8,30.07,South,170,0.0,0.0,76,0.00,CLR,SCT,0.00,WeatherDisplay:10.37,2013-01-02 00:12:00,
2013-01-01 19:13:00,67.5,59.7,30.07,South,171,0.0,0.0,76,0.00,CLR,SCT,0.00,WeatherDisplay:10.37,2013-01-02 00:13:00,
2013-01-01 19:17:00,67.4,59.6,30.07,South,170,0.0,0.0,76,0.00,CLR,SCT,0.00,WeatherDisplay:10.37,2013-01-02 00:17:00,
2013-01-01 19:18:00,67.3,59.5,30.07,South,170,0.0,0.0,76,0.00,CLR,SCT,0.00,WeatherDisplay:10.37,2013-01-02 00:18:00,
2013-01-01 19:19:00,67.3,59.5,30.07,South,171,0.0,0.0,76,0.00,CLR,SCT,0.00,WeatherDisplay:10.37,2013-01-02 00:19:00,
2013-01-01 19:22:00,67.1,59.3,30.08,South,170,0.0,0.0,76,0.00,CLR,SCT,0.00,WeatherDisplay:10.37,2013-01-02 00:22:00,
2013-01-01 19:24:00,67.0,59.5,30.08,South,170,0.0,0.0,77,0.00,CLR,SCT,0.00,WeatherDisplay:10.37,2013-01-02 00:24:00,
2013-01-01 19:27:00,66.7,59.3,30.07,South,170,0.0,0.0,77,0.00,CLR,SCT,0.00,WeatherDisplay:10.37,2013-01-02 00:27:00,
2013-01-01 19:29:00,66.6,59.2,30.07,South,170,0.0,0.0,77,0.00,CLR,SCT,0.00,WeatherDisplay:10.37,2013-01-02 00:29:00,
2013-01-01 19:32:00,66.3,59.2,30.07,South,170,0.0,0.0,78,0.00,CLR,SCT,0.00,WeatherDisplay:10.37,2013-01-02 00:32:00,
2013-01-01 19:34:00,66.2,59.1,30.07,South,170,0.0,0.0,78,0.00,CLR,SCT,0.00,WeatherDisplay:10.37,2013-01-02 00:34:00,
2013-01-01 19:35:00,66.1,59.0,30.07,South,170,0.0,0.0,78,0.00,CLR,SCT,0.00,WeatherDisplay:10.37,2013-01-02 00:35:00,
2013-01-01 19:38:00,65.8,59.1,30.07,South,170,0.0,0.0,79,0.00,CLR,SCT,0.00,WeatherDisplay:10.37,2013-01-02 00:38:00,
2013-01-01 19:39:00,65.7,59.0,30.07,South,171,0.0,0.0,79,0.00,CLR,SCT,0.00,WeatherDisplay:10.37,2013-01-02 00:39:00,
2013-01-01 19:40:00,65.6,59.3,30.07,South,170,0.0,0.0,80,0.00,CLR,SCT,0.00,WeatherDisplay:10.37,2013-01-02 00:40:00,
2013-01-01 19:43:00,65.6,59.3,30.07,South,170,0.0,0.0,80,0.00,CLR,SCT,0.00,WeatherDisplay:10.37,2013-01-02 00:43:00,
2013-01-01 19:44:00,65.6,59.3,30.07,South,170,0.0,0.0,80,0.00,CLR,SCT,0.00,WeatherDisplay:10.37,2013-01-02 00:44:00,
2013-01-01 19:45:00,65.7,59.0,30.07,South,170,0.0,0.0,79,0.00,CLR,SCT,0.00,WeatherDisplay:10.37,2013-01-02 00:45:00,
2013-01-01 19:48:00,66.0,58.9,30.07,South,170,0.0,0.0,78,0.00,CLR,SCT,0.00,WeatherDisplay:10.37,2013-01-02 00:48:00,
2013-01-01 19:49:00,65.9,58.8,30.07,South,171,0.0,0.0,78,0.00,CLR,SCT,0.00,WeatherDisplay:10.37,2013-01-02 00:49:00,
2013-01-01 19:50:00,65.9,58.8,30.07,South,171,0.0,0.0,78,0.00,CLR,SCT,0.00,WeatherDisplay:10.37,2013-01-02 00:50:00,
2013-01-01 19:53:00,65.9,58.8,30.07,South,170,0.0,0.0,78,0.00,CLR,SCT,0.00,WeatherDisplay:10.37,2013-01-02 00:53:00,
2013-01-01 19:54:00,65.9,58.8,30.07,South,170,0.0,0.0,78,0.00,CLR,SCT,0.00,WeatherDisplay:10.37,2013-01-02 00:54:00,
2013-01-01 19:55:00,65.9,58.8,30.07,South,170,0.0,0.0,78,0.00,CLR,SCT,0.00,WeatherDisplay:10.37,2013-01-02 00:55:00,
2013-01-01 19:59:00,65.6,58.6,30.07,South,170,0.0,0.0,78,0.00,CLR,SCT,0.00,WeatherDisplay:10.37,2013-01-02 00:59:00,
2013-01-01 20:00:00,65.5,58.5,30.07,South,170,0.0,0.0,78,0.00,CLR,SCT,0.00,WeatherDisplay:10.37,2013-01-02 01:00:00,
2013-01-01 20:01:00,65.4,58.4,30.07,South,171,0.0,0.0,78,0.00,CLR,SCT,0.00,WeatherDisplay:10.37,2013-01-02 01:01:00,
2013-01-01 20:04:00,65.1,58.1,30.07,South,170,0.0,0.0,78,0.00,CLR,SCT,0.00,WeatherDisplay:10.37,2013-01-02 01:04:00,
2013-01-01 20:05:00,65.0,58.0,30.07,South,171,0.0,0.0,78,0.00,CLR,SCT,0.00,WeatherDisplay:10.37,2013-01-02 01:05:00,
2013-01-01 20:06:00,64.9,58.2,30.07,South,170,0.0,0.0,79,0.00,CLR,SCT,0.00,WeatherDisplay:10.37,2013-01-02 01:06:00,
2013-01-01 20:09:00,64.6,58.3,30.07,South,171,0.0,0.0,80,0.00,CLR,SCT,0.00,WeatherDisplay:10.37,2013-01-02 01:09:00,
2013-01-01 20:10:00,64.4,58.4,30.07,South,171,0.0,0.0,81,0.00,CLR,SCT,0.00,WeatherDisplay:10.37,2013-01-02 01:10:00,
2013-01-01 20:11:00,64.3,58.3,30.07,South,171,0.0,0.0,81,0.00,CLR,SCT,0.00,WeatherDisplay:10.37,2013-01-02 01:11:00,
2013-01-01 20:14:00,63.9,58.3,30.08,South,170,0.0,0.0,82,0.00,CLR,SCT,0.00,WeatherDisplay:10.37,2013-01-02 01:14:00,
2013-01-01 20:15:00,63.7,58.1,30.08,South,171,0.0,0.0,82,0.00,CLR,SCT,0.00,WeatherDisplay:10.37,2013-01-02 01:15:00,
2013-01-01 20:16:00,63.7,58.1,30.08,South,170,0.0,0.0,82,0.00,CLR,SCT,0.00,WeatherDisplay:10.37,2013-01-02 01:16:00,
2013-01-01 20:19:00,63.4,57.8,30.07,South,171,0.0,0.0,82,0.00,CLR,SCT,0.00,WeatherDisplay:10.37,2013-01-02 01:19:00,
2013-01-01 20:21:00,63.2,57.9,30.07,South,171,0.0,0.0,83,0.00,CLR,SCT,0.00,WeatherDisplay:10.37,2013-01-02 01:21:00,
2013-01-01 20:22:00,63.1,57.9,30.07,South,170,0.0,0.0,83,0.00,CLR,SCT,0.00,WeatherDisplay:10.37,2013-01-02 01:22:00,
2013-01-01 20:24:00,62.9,57.7,30.07,South,170,0.0,0.0,83,0.00,CLR,SCT,0.00,WeatherDisplay:10.37,2013-01-02 01:24:00,
2013-01-01 20:26:00,62.8,57.6,30.07,South,171,0.0,0.0,83,0.00,CLR,SCT,0.00,WeatherDisplay:10.37,2013-01-02 01:26:00,
2013-01-01 20:27:00,62.6,57.4,30.07,South,170,0.0,0.0,83,0.00,CLR,SCT,0.00,WeatherDisplay:10.37,2013-01-02 01:27:00,
2013-01-01 20:29:00,62.5,57.6,30.07,South,170,0.0,0.0,84,0.00,CLR,SCT,0.00,WeatherDisplay:10.37,2013-01-02 01:29:00,
2013-01-01 20:31:00,62.4,57.5,30.07,South,170,0.0,0.0,84,0.00,CLR,SCT,0.00,WeatherDisplay:10.37,2013-01-02 01:31:00,
2013-01-01 20:32:00,62.3,57.4,30.07,South,170,0.0,0.0,84,0.00,CLR,SCT,0.00,WeatherDisplay:10.37,2013-01-02 01:32:00,
2013-01-01 20:34:00,62.2,57.6,30.07,South,170,0.0,0.0,85,0.00,CLR,SCT,0.00,WeatherDisplay:10.37,2013-01-02 01:34:00,
2013-01-01 20:36:00,62.2,58.0,30.07,South,170,0.0,0.0,86,0.00,CLR,SCT,0.00,WeatherDisplay:10.37,2013-01-02 01:36:00,
2013-01-01 20:37:00,62.2,58.0,30.07,South,170,0.0,0.0,86,0.00,CLR,SCT,0.00,WeatherDisplay:10.37,2013-01-02 01:37:00,
2013-01-01 20:40:00,62.1,57.9,30.07,South,170,0.0,0.0,86,0.00,CLR,SCT,0.00,WeatherDisplay:10.37,2013-01-02 01:40:00,
2013-01-01 20:41:00,62.1,57.9,30.07,South,170,0.0,0.0,86,0.00,CLR,SCT,0.00,WeatherDisplay:10.37,2013-01-02 01:41:00,
2013-01-01 20:42:00,62.0,57.8,30.07,South,170,0.0,0.0,86,0.00,CLR,SCT,0.00,WeatherDisplay:10.37,2013-01-02 01:42:00,
2013-01-01 20:45:00,61.9,57.3,30.07,South,170,0.0,0.0,85,0.00,CLR,SCT,0.00,WeatherDisplay:10.37,2013-01-02 01:45:00,
2013-01-01 20:46:00,61.8,57.6,30.07,South,170,0.0,0.0,86,0.00,CLR,SCT,0.00,WeatherDisplay:10.37,2013-01-02 01:46:00,
2013-01-01 20:48:00,61.7,57.5,30.07,South,170,0.0,0.0,86,0.00,CLR,SCT,0.00,WeatherDisplay:10.37,2013-01-02 01:48:00,
2013-01-01 20:50:00,61.5,56.9,30.07,South,171,0.0,0.0,85,0.00,CLR,SCT,0.00,WeatherDisplay:10.37,2013-01-02 01:50:00,
2013-01-01 20:51:00,61.5,57.3,30.07,South,170,0.0,0.0,86,0.00,CLR,SCT,0.00,WeatherDisplay:10.37,2013-01-02 01:51:00,
2013-01-01 20:52:00,61.4,57.2,30.07,South,170,0.0,0.0,86,0.00,CLR,SCT,0.00,WeatherDisplay:10.37,2013-01-02 01:52:00,
2013-01-01 20:53:00,61.4,57.2,30.08,South,170,0.0,0.0,86,0.00,CLR,SCT,0.00,WeatherDisplay:10.37,2013-01-02 01:53:00,
2013-01-01 20:55:00,61.3,57.4,30.08,South,170,0.0,0.0,87,0.00,CLR,SCT,0.00,WeatherDisplay:10.37,2013-01-02 01:55:00,
2013-01-01 20:56:00,61.2,57.3,30.08,South,170,0.0,0.0,87,0.00,CLR,SCT,0.00,WeatherDisplay:10.37,2013-01-02 01:56:00,
2013-01-01 20:57:00,61.2,57.3,30.08,South,170,0.0,0.0,87,0.00,CLR,SCT,0.00,WeatherDisplay:10.37,2013-01-02 01:57:00,
2013-01-01 20:58:00,61.3,57.7,30.08,South,170,0.0,0.0,88,0.00,CLR,SCT,0.00,WeatherDisplay:10.37,2013-01-02 01:58:00,
2013-01-01 21:00:00,61.5,57.9,30.08,South,170,0.0,0.0,88,0.00,CLR,SCT,0.00,WeatherDisplay:10.37,2013-01-02 02:00:00,
2013-01-01 21:02:00,61.6,58.0,30.08,South,170,0.0,0.0,88,0.00,CLR,SCT,0.00,WeatherDisplay:10.37,2013-01-02 02:02:00,
2013-01-01 21:03:00,61.7,58.1,30.08,South,170,0.0,0.0,88,0.00,CLR,SCT,0.00,WeatherDisplay:10.37,2013-01-02 02:03:00,
2013-01-01 21:05:00,61.8,57.6,30.08,South,170,0.0,0.0,86,0.00,CLR,SCT,0.00,WeatherDisplay:10.37,2013-01-02 02:05:00,
2013-01-01 21:07:00,61.8,57.6,30.08,South,170,0.0,0.0,86,0.00,CLR,SCT,0.00,WeatherDisplay:10.37,2013-01-02 02:07:00,
2013-01-01 21:08:00,61.7,57.5,30.08,South,171,0.0,0.0,86,0.00,CLR,SCT,0.00,WeatherDisplay:10.37,2013-01-02 02:08:00,
2013-01-01 21:11:00,61.6,57.4,30.08,South,170,0.0,0.0,86,0.00,CLR,SCT,0.00,WeatherDisplay:10.37,2013-01-02 02:11:00,
2013-01-01 21:12:00,61.5,56.9,30.08,South,170,0.0,0.0,85,0.00,CLR,SCT,0.00,WeatherDisplay:10.37,2013-01-02 02:12:00,
2013-01-01 21:13:00,61.4,56.8,30.08,South,170,0.0,0.0,85,0.00,CLR,SCT,0.00,WeatherDisplay:10.37,2013-01-02 02:13:00,
2013-01-01 21:16:00,61.2,57.0,30.08,South,170,0.0,0.0,86,0.00,CLR,SCT,0.00,WeatherDisplay:10.37,2013-01-02 02:16:00,
2013-01-01 21:17:00,61.1,56.9,30.08,South,170,0.0,0.0,86,0.00,CLR,SCT,0.00,WeatherDisplay:10.37,2013-01-02 02:17:00,
2013-01-01 21:18:00,61.0,56.8,30.08,South,170,0.0,0.0,86,0.00,CLR,SCT,0.00,WeatherDisplay:10.37,2013-01-02 02:18:00,
2013-01-01 21:21:00,60.8,56.6,30.08,South,170,0.0,0.0,86,0.00,CLR,SCT,0.00,WeatherDisplay:10.37,2013-01-02 02:21:00,
2013-01-01 21:22:00,60.6,56.4,30.08,South,170,0.0,0.0,86,0.00,CLR,SCT,0.00,WeatherDisplay:10.37,2013-01-02 02:22:00,
2013-01-01 21:23:00,60.6,56.4,30.08,South,170,0.0,0.0,86,0.00,CLR,SCT,0.00,WeatherDisplay:10.37,2013-01-02 02:23:00,
2013-01-01 21:24:00,60.5,56.6,30.08,South,170,0.0,0.0,87,0.00,CLR,SCT,0.00,WeatherDisplay:10.37,2013-01-02 02:24:00,
2013-01-01 21:26:00,60.5,56.9,30.08,South,170,0.0,0.0,88,0.00,CLR,SCT,0.00,WeatherDisplay:10.37,2013-01-02 02:26:00,
2013-01-01 21:28:00,60.4,56.8,30.08,South,170,0.0,0.0,88,0.00,CLR,SCT,0.00,WeatherDisplay:10.37,2013-01-02 02:28:00,
2013-01-01 21:29:00,60.3,56.7,30.08,South,170,0.0,0.0,88,0.00,CLR,SCT,0.00,WeatherDisplay:10.37,2013-01-02 02:29:00,
2013-01-01 21:31:00,60.3,56.7,30.08,South,170,0.0,0.0,88,0.00,CLR,SCT,0.00,WeatherDisplay:10.37,2013-01-02 02:31:00,
2013-01-01 21:33:00,60.1,56.5,30.08,South,170,0.0,0.0,88,0.00,CLR,SCT,0.00,WeatherDisplay:10.37,2013-01-02 02:33:00,
2013-01-01 21:34:00,60.1,56.5,30.08,South,171,0.0,0.0,88,0.00,CLR,SCT,0.00,WeatherDisplay:10.37,2013-01-02 02:34:00,
2013-01-01 21:36:00,59.9,56.3,30.08,South,170,0.0,0.0,88,0.00,CLR,SCT,0.00,WeatherDisplay:10.37,2013-01-02 02:36:00,
2013-01-01 21:38:00,59.8,56.2,30.08,South,170,0.0,0.0,88,0.00,CLR,SCT,0.00,WeatherDisplay:10.37,2013-01-02 02:38:00,
2013-01-01 21:40:00,59.7,56.2,30.08,South,170,0.0,0.0,88,0.00,CLR,SCT,0.00,WeatherDisplay:10.37,2013-01-02 02:40:00,
2013-01-01 21:41:00,59.6,56.0,30.08,South,170,0.0,0.0,88,0.00,CLR,SCT,0.00,WeatherDisplay:10.37,2013-01-02 02:41:00,
2013-01-01 21:43:00,59.5,56.3,30.08,South,170,0.0,0.0,89,0.00,CLR,SCT,0.00,WeatherDisplay:10.37,2013-01-02 02:43:00,
2013-01-01 21:45:00,59.4,56.2,30.08,South,170,0.0,0.0,89,0.00,CLR,SCT,0.00,WeatherDisplay:10.37,2013-01-02 02:45:00,
2013-01-01 21:46:00,59.4,56.5,30.08,South,170,0.0,0.0,90,0.00,CLR,SCT,0.00,WeatherDisplay:10.37,2013-01-02 02:46:00,
2013-01-01 21:48:00,59.4,56.5,30.08,South,170,0.0,0.0,90,0.00,CLR,SCT,0.00,WeatherDisplay:10.37,2013-01-02 02:48:00,
2013-01-01 21:50:00,59.4,56.5,30.08,South,170,0.0,0.0,90,0.00,CLR,SCT,0.00,WeatherDisplay:10.37,2013-01-02 02:50:00,
2013-01-01 21:52:00,59.3,56.4,30.08,South,170,0.0,0.0,90,0.00,CLR,SCT,0.00,WeatherDisplay:10.37,2013-01-02 02:52:00,
2013-01-01 21:53:00,59.3,56.4,30.08,South,170,0.0,0.0,90,0.00,CLR,SCT,0.00,WeatherDisplay:10.37,2013-01-02 02:53:00,
2013-01-01 21:55:00,59.2,56.3,30.08,South,171,0.0,0.0,90,0.00,CLR,SCT,0.00,WeatherDisplay:10.37,2013-01-02 02:55:00,
2013-01-01 21:57:00,59.1,56.2,30.08,South,170,0.0,0.0,90,0.00,CLR,SCT,0.00,WeatherDisplay:10.37,2013-01-02 02:57:00,
2013-01-01 21:58:00,59.2,56.6,30.08,South,170,0.0,0.0,91,0.00,CLR,SCT,0.00,WeatherDisplay:10.37,2013-01-02 02:58:00,
2013-01-01 21:59:00,59.2,56.6,30.08,South,170,0.0,0.0,91,0.00,CLR,SCT,0.00,WeatherDisplay:10.37,2013-01-02 02:59:00,
2013-01-01 22:00:00,59.3,57.0,30.08,South,170,0.0,0.0,92,0.00,CLR,SCT,0.00,WeatherDisplay:10.37,2013-01-02 03:00:00,
2013-01-01 22:02:00,59.4,56.8,30.08,South,171,0.0,0.0,91,0.00,CLR,SCT,0.00,WeatherDisplay:10.37,2013-01-02 03:02:00,
2013-01-01 22:03:00,59.3,56.7,30.08,South,170,0.0,0.0,91,0.00,CLR,SCT,0.00,WeatherDisplay:10.37,2013-01-02 03:03:00,
2013-01-01 22:04:00,59.3,56.7,30.08,South,170,0.0,0.0,91,0.00,CLR,SCT,0.00,WeatherDisplay:10.37,2013-01-02 03:04:00,
2013-01-01 22:05:00,59.3,56.7,30.08,South,170,0.0,0.0,91,0.00,CLR,SCT,0.00,WeatherDisplay:10.37,2013-01-02 03:05:00,
2013-01-01 22:07:00,59.2,56.6,30.08,South,170,0.0,0.0,91,0.00,CLR,SCT,0.00,WeatherDisplay:10.37,2013-01-02 03:07:00,
2013-01-01 22:08:00,59.1,56.5,30.08,South,170,0.0,0.0,91,0.00,CLR,SCT,0.00,WeatherDisplay:10.37,2013-01-02 03:08:00,
2013-01-01 22:09:00,59.1,56.2,30.08,South,171,0.0,0.0,90,0.00,CLR,SCT,0.00,WeatherDisplay:10.37,2013-01-02 03:09:00,
2013-01-01 22:11:00,59.0,56.1,30.08,South,170,0.0,0.0,90,0.00,CLR,SCT,0.00,WeatherDisplay:10.37,2013-01-02 03:11:00,
2013-01-01 22:12:00,58.9,56.0,30.08,South,170,0.0,0.0,90,0.00,CLR,SCT,0.00,WeatherDisplay:10.37,2013-01-02 03:12:00,
2013-01-01 22:14:00,58.8,55.9,30.08,South,170,0.0,0.0,90,0.00,CLR,SCT,0.00,WeatherDisplay:10.37,2013-01-02 03:14:00,
2013-01-01 22:16:00,58.6,55.7,30.08,South,170,0.0,0.0,90,0.00,CLR,SCT,0.00,WeatherDisplay:10.37,2013-01-02 03:16:00,
2013-01-01 22:17:00,58.5,55.6,30.08,South,171,0.0,0.0,90,0.00,CLR,SCT,0.00,WeatherDisplay:10.37,2013-01-02 03:17:00,
2013-01-01 22:19:00,58.4,55.5,30.08,South,170,0.0,0.0,90,0.00,CLR,SCT,0.00,WeatherDisplay:10.37,2013-01-02 03:19:00,
2013-01-01 22:21:00,58.2,55.3,30.08,South,171,0.0,0.0,90,0.00,CLR,SCT,0.00,WeatherDisplay:10.37,2013-01-02 03:21:00,
2013-01-01 22:22:00,58.1,55.2,30.08,South,170,0.0,0.0,90,0.00,CLR,SCT,0.00,WeatherDisplay:10.37,2013-01-02 03:22:00,
2013-01-01 22:24:00,58.0,55.1,30.08,South,170,0.0,0.0,90,0.00,CLR,SCT,0.00,WeatherDisplay:10.37,2013-01-02 03:24:00,
2013-01-01 22:26:00,57.9,55.3,30.08,South,170,0.0,0.0,91,0.00,CLR,SCT,0.00,WeatherDisplay:10.37,2013-01-02 03:26:00,
2013-01-01 22:27:00,57.9,55.3,30.08,South,170,0.0,0.0,91,0.00,CLR,SCT,0.00,WeatherDisplay:10.37,2013-01-02 03:27:00,
2013-01-01 22:29:00,58.1,56.1,30.08,South,170,0.0,0.0,93,0.00,CLR,SCT,0.00,WeatherDisplay:10.37,2013-01-02 03:29:00,
2013-01-01 22:31:00,58.2,55.9,30.08,South,170,0.0,0.0,92,0.00,CLR,SCT,0.00,WeatherDisplay:10.37,2013-01-02 03:31:00,
2013-01-01 22:33:00,58.2,55.9,30.07,South,170,0.0,0.0,92,0.00,CLR,SCT,0.00,WeatherDisplay:10.37,2013-01-02 03:33:00,
2013-01-01 22:34:00,58.2,55.9,30.07,South,170,0.0,0.0,92,0.00,CLR,SCT,0.00,WeatherDisplay:10.37,2013-01-02 03:34:00,
2013-01-01 22:36:00,58.1,55.8,30.07,South,170,0.0,0.0,92,0.00,CLR,SCT,0.00,WeatherDisplay:10.37,2013-01-02 03:36:00,
2013-01-01 22:38:00,58.0,55.7,30.07,South,170,0.0,0.0,92,0.00,CLR,SCT,0.00,WeatherDisplay:10.37,2013-01-02 03:38:00,
2013-01-01 22:40:00,57.9,55.6,30.07,South,171,0.0,0.0,92,0.00,CLR,SCT,0.00,WeatherDisplay:10.37,2013-01-02 03:40:00,
2013-01-01 22:41:00,57.8,55.2,30.07,South,170,0.0,0.0,91,0.00,CLR,SCT,0.00,WeatherDisplay:10.37,2013-01-02 03:41:00,
2013-01-01 22:43:00,57.7,55.4,30.07,South,170,0.0,0.0,92,0.00,CLR,SCT,0.00,WeatherDisplay:10.37,2013-01-02 03:43:00,
2013-01-01 22:45:00,57.6,55.3,30.07,South,170,0.0,0.0,92,0.00,CLR,SCT,0.00,WeatherDisplay:10.37,2013-01-02 03:45:00,
2013-01-01 22:47:00,57.5,55.2,30.07,South,170,0.0,0.0,92,0.00,CLR,SCT,0.00,WeatherDisplay:10.37,2013-01-02 03:47:00,
2013-01-01 22:48:00,57.4,55.1,30.07,South,170,0.0,0.0,92,0.00,CLR,SCT,0.00,WeatherDisplay:10.37,2013-01-02 03:48:00,
2013-01-01 22:50:00,57.4,55.1,30.07,South,170,0.0,0.0,92,0.00,CLR,SCT,0.00,WeatherDisplay:10.37,2013-01-02 03:50:00,
2013-01-01 22:52:00,57.4,55.4,30.07,South,170,0.0,0.0,93,0.00,CLR,SCT,0.00,WeatherDisplay:10.37,2013-01-02 03:52:00,
2013-01-01 22:53:00,57.4,55.4,30.07,South,170,0.0,0.0,93,0.00,CLR,SCT,0.00,WeatherDisplay:10.37,2013-01-02 03:53:00,
2013-01-01 22:55:00,57.5,55.5,30.07,South,171,0.0,0.0,93,0.00,CLR,SCT,0.00,WeatherDisplay:10.37,2013-01-02 03:55:00,
2013-01-01 22:58:00,57.5,55.5,30.07,South,170,0.0,0.0,93,0.00,CLR,SCT,0.00,WeatherDisplay:10.37,2013-01-02 03:58:00,
2013-01-01 23:00:00,57.4,55.4,30.07,South,170,0.0,0.0,93,0.00,CLR,SCT,0.00,WeatherDisplay:10.37,2013-01-02 04:00:00,
2013-01-01 23:03:00,57.2,55.2,30.07,South,170,0.0,0.0,93,0.00,CLR,SCT,0.00,WeatherDisplay:10.37,2013-01-02 04:03:00,
2013-01-01 23:05:00,57.2,55.2,30.07,South,170,0.0,0.0,93,0.00,CLR,SCT,0.00,WeatherDisplay:10.37,2013-01-02 04:05:00,
2013-01-01 23:06:00,57.2,55.2,30.07,South,170,0.0,0.0,93,0.00,CLR,SCT,0.00,WeatherDisplay:10.37,2013-01-02 04:06:00,
2013-01-01 23:08:00,57.1,55.1,30.07,South,170,0.0,0.0,93,0.00,CLR,SCT,0.00,WeatherDisplay:10.37,2013-01-02 04:08:00,
2013-01-01 23:10:00,57.0,55.0,30.07,South,170,0.0,0.0,93,0.00,CLR,SCT,0.00,WeatherDisplay:10.37,2013-01-02 04:10:00,
2013-01-01 23:11:00,56.9,54.9,30.07,South,170,0.0,0.0,93,0.00,CLR,SCT,0.00,WeatherDisplay:10.37,2013-01-02 04:11:00,
2013-01-01 23:13:00,56.8,54.8,30.06,South,170,0.0,0.0,93,0.00,CLR,SCT,0.00,WeatherDisplay:10.37,2013-01-02 04:13:00,
2013-01-01 23:14:00,56.8,54.8,30.06,South,170,0.0,0.0,93,0.00,CLR,SCT,0.00,WeatherDisplay:10.37,2013-01-02 04:14:00,
2013-01-01 23:15:00,56.8,54.8,30.06,South,170,0.0,0.0,93,0.00,CLR,SCT,0.00,WeatherDisplay:10.37,2013-01-02 04:15:00,
2013-01-01 23:16:00,56.9,55.2,30.06,South,170,0.0,0.0,94,0.00,CLR,SCT,0.00,WeatherDisplay:10.37,2013-01-02 04:16:00,
2013-01-01 23:18:00,56.9,55.2,30.06,South,170,0.0,0.0,94,0.00,CLR,SCT,0.00,WeatherDisplay:10.37,2013-01-02 04:18:00,
2013-01-01 23:19:00,56.9,55.2,30.06,South,170,0.0,0.0,94,0.00,CLR,SCT,0.00,WeatherDisplay:10.37,2013-01-02 04:19:00,
2013-01-01 23:21:00,56.9,55.2,30.06,South,170,0.0,0.0,94,0.00,CLR,SCT,0.00,WeatherDisplay:10.37,2013-01-02 04:21:00,
2013-01-01 23:23:00,56.7,55.0,30.06,South,170,0.0,0.0,94,0.00,CLR,SCT,0.00,WeatherDisplay:10.37,2013-01-02 04:23:00,
2013-01-01 23:24:00,56.7,55.0,30.06,South,170,0.0,0.0,94,0.00,CLR,SCT,0.00,WeatherDisplay:10.37,2013-01-02 04:24:00,
2013-01-01 23:26:00,56.6,54.6,30.06,South,170,0.0,0.0,93,0.00,CLR,SCT,0.00,WeatherDisplay:10.37,2013-01-02 04:26:00,
2013-01-01 23:29:00,56.5,54.5,30.06,South,170,0.0,0.0,93,0.00,CLR,SCT,0.00,WeatherDisplay:10.37,2013-01-02 04:29:00,
2013-01-01 23:31:00,56.3,54.3,30.06,South,170,0.0,0.0,93,0.00,CLR,SCT,0.00,WeatherDisplay:10.37,2013-01-02 04:31:00,
2013-01-01 23:32:00,56.3,54.3,30.06,South,170,0.0,0.0,93,0.00,CLR,SCT,0.00,WeatherDisplay:10.37,2013-01-02 04:32:00,
2013-01-01 23:34:00,56.2,54.2,30.06,South,170,0.0,0.0,93,0.00,CLR,SCT,0.00,WeatherDisplay:10.37,2013-01-02 04:34:00,
2013-01-01 23:36:00,56.1,54.1,30.05,South,170,0.0,0.0,93,0.00,CLR,SCT,0.00,WeatherDisplay:10.37,2013-01-02 04:36:00,
2013-01-01 23:37:00,56.0,54.0,30.06,South,170,0.0,0.0,93,0.00,CLR,SCT,0.00,WeatherDisplay:10.37,2013-01-02 04:37:00,
2013-01-01 23:39:00,56.0,54.3,30.05,South,170,0.0,0.0,94,0.00,CLR,SCT,0.00,WeatherDisplay:10.37,2013-01-02 04:39:00,
2013-01-01 23:40:00,56.1,54.4,30.05,South,170,0.0,0.0,94,0.00,CLR,SCT,0.00,WeatherDisplay:10.37,2013-01-02 04:40:00,
2013-01-01 23:41:00,56.2,54.8,30.05,South,171,0.0,0.0,95,0.00,CLR,SCT,0.00,WeatherDisplay:10.37,2013-01-02 04:41:00,
2013-01-01 23:42:00,56.4,55.0,30.05,South,190,0.0,0.0,95,0.00,CLR,SCT,0.00,WeatherDisplay:10.37,2013-01-02 04:42:00,
2013-01-01 23:44:00,56.7,55.6,30.06,South,190,0.0,0.0,96,0.00,CLR,SCT,0.00,WeatherDisplay:10.37,2013-01-02 04:44:00,
2013-01-01 23:45:00,56.9,55.8,30.06,South,190,0.0,0.0,96,0.00,CLR,SCT,0.00,WeatherDisplay:10.37,2013-01-02 04:45:00,
2013-01-01 23:46:00,57.1,56.0,30.06,South,190,0.0,0.0,96,0.00,CLR,SCT,0.00,WeatherDisplay:10.37,2013-01-02 04:46:00,
2013-01-01 23:47:00,57.1,56.0,30.06,South,190,0.0,0.0,96,0.00,CLR,SCT,0.00,WeatherDisplay:10.37,2013-01-02 04:47:00,
2013-01-01 23:49:00,57.2,56.1,30.06,South,190,0.0,0.0,96,0.00,CLR,SCT,0.00,WeatherDisplay:10.37,2013-01-02 04:49:00,
2013-01-01 23:50:00,57.4,56.3,30.06,South,190,0.0,0.0,96,0.00,CLR,SCT,0.00,WeatherDisplay:10.37,2013-01-02 04:50:00,
2013-01-01 23:51:00,57.6,56.5,30.06,South,190,0.0,0.0,96,0.00,CLR,SCT,0.00,WeatherDisplay:10.37,2013-01-02 04:51:00,
2013-01-01 23:52:00,57.7,56.6,30.06,South,190,0.0,0.0,96,0.00,CLR,SCT,0.00,WeatherDisplay:10.37,2013-01-02 04:52:00,
2013-01-01 23:54:00,57.8,56.7,30.06,South,190,0.0,0.0,96,0.00,CLR,SCT,0.00,WeatherDisplay:10.37,2013-01-02 04:54:00,
2013-01-01 23:55:00,57.9,56.8,30.06,South,190,0.0,0.0,96,0.00,CLR,SCT,0.00,WeatherDisplay:10.37,2013-01-02 04:55:00,
2013-01-01 23:57:00,58.1,57.0,30.06,South,190,0.0,0.0,96,0.00,CLR,SCT,0.00,WeatherDisplay:10.37,2013-01-02 04:57:00,
2013-01-01 23:59:00,58.3,57.2,30.06,South,190,0.0,0.0,96,0.00,CLR,SCT,0.00,WeatherDisplay:10.37,2013-01-02 04:59:00,